Wetterdaten: Montag, 19.01.2015
Datum Zeit Temp. Aussen +5cm Feuchte Auss Luftdruck Regen Sonnenschein Regendauer Solar Windben
19.01.2015 00:00 0,2 C -1,1 C 89 % 1012,9 hPa 0,0 l/m 0 min 0 min 0 W/m 16,7 km/h (3 Bft)
19.01.2015 00:02 0,2 C -1,1 C 89 % 1012,9 hPa 0,0 l/m 0 min 0 min 0 W/m 8,4 km/h (2 Bft)
19.01.2015 00:06 0,2 C -1,1 C 89 % 1012,9 hPa 0,0 l/m 0 min 0 min 0 W/m 18,8 km/h (3 Bft)
19.01.2015 00:08 0,1 C -1,1 C 89 % 1012,8 hPa 0,0 l/m 0 min 0 min 0 W/m 14,6 km/h (3 Bft)
19.01.2015 00:10 0,1 C -1,1 C 89 % 1012,9 hPa 0,0 l/m 0 min 0 min 0 W/m 14,6 km/h (3 Bft)
19.01.2015 00:12 0,1 C -1,1 C 89 % 1012,9 hPa 0,0 l/m 0 min 0 min 0 W/m 16,7 km/h (3 Bft)
19.01.2015 00:14 0,1 C -1,1 C 89 % 1012,9 hPa 0,0 l/m 0 min 0 min 0 W/m 10,5 km/h (2 Bft)
19.01.2015 00:16 0,1 C -1,1 C 90 % 1012,9 hPa 0,0 l/m 0 min 0 min 0 W/m 12,6 km/h (3 Bft)
19.01.2015 00:18 0,1 C -1,1 C 90 % 1012,9 hPa 0,0 l/m 0 min 0 min 0 W/m 12,6 km/h (3 Bft)
19.01.2015 00:20 0,1 C -1,1 C 90 % 1013,0 hPa 0,0 l/m 0 min 0 min 0 W/m 8,4 km/h (2 Bft)
19.01.2015 00:22 0,1 C -1,1 C 90 % 1013,0 hPa 0,0 l/m 0 min 0 min 0 W/m 10,5 km/h (2 Bft)
19.01.2015 00:24 0,1 C -1,1 C 90 % 1013,0 hPa 0,0 l/m 0 min 0 min 0 W/m 10,5 km/h (2 Bft)
19.01.2015 00:26 0,0 C -1,1 C 90 % 1012,9 hPa 0,0 l/m 0 min 0 min 0 W/m 8,4 km/h (2 Bft)
19.01.2015 00:28 0,1 C -1,1 C 90 % 1012,9 hPa 0,0 l/m 0 min 0 min 0 W/m 8,4 km/h (2 Bft)
19.01.2015 00:30 0,0 C -1,1 C 90 % 1012,9 hPa 0,0 l/m 0 min 0 min 0 W/m 10,5 km/h (2 Bft)
19.01.2015 00:32 0,0 C -1,1 C 90 % 1013,0 hPa 0,0 l/m 0 min 0 min 0 W/m 10,5 km/h (2 Bft)
19.01.2015 00:34 0,0 C -1,1 C 90 % 1012,9 hPa 0,0 l/m 0 min 0 min 0 W/m 10,5 km/h (2 Bft)
19.01.2015 00:36 0,0 C -1,1 C 90 % 1012,9 hPa 0,0 l/m 0 min 0 min 0 W/m 10,5 km/h (2 Bft)
19.01.2015 00:38 0,0 C -1,1 C 90 % 1012,9 hPa 0,0 l/m 0 min 0 min 0 W/m 12,6 km/h (3 Bft)
19.01.2015 00:40 0,0 C -1,1 C 90 % 1012,9 hPa 0,0 l/m 0 min 0 min 0 W/m 12,6 km/h (3 Bft)
19.01.2015 00:42 0,0 C -1,1 C 90 % 1012,9 hPa 0,0 l/m 0 min 0 min 0 W/m 14,6 km/h (3 Bft)
19.01.2015 00:44 -0,1 C -1,1 C 90 % 1012,9 hPa 0,0 l/m 0 min 0 min 0 W/m 12,6 km/h (3 Bft)
19.01.2015 00:46 -0,1 C -1,1 C 90 % 1012,9 hPa 0,0 l/m 0 min 0 min 0 W/m 10,5 km/h (2 Bft)
19.01.2015 00:48 -0,1 C -1,1 C 90 % 1012,9 hPa 0,0 l/m 0 min 0 min 0 W/m 12,6 km/h (3 Bft)
19.01.2015 00:50 -0,1 C -1,1 C 90 % 1012,9 hPa 0,0 l/m 0 min 0 min 0 W/m 16,7 km/h (3 Bft)
19.01.2015 00:52 -0,1 C -1,7 C 90 % 1012,8 hPa 0,0 l/m 0 min 0 min 0 W/m 10,5 km/h (2 Bft)
19.01.2015 00:54 -0,1 C -1,1 C 90 % 1012,9 hPa 0,0 l/m 0 min 0 min 0 W/m 6,3 km/h (2 Bft)
19.01.2015 00:56 -0,1 C -1,1 C 90 % 1012,9 hPa 0,0 l/m 0 min 0 min 0 W/m 10,5 km/h (2 Bft)
19.01.2015 00:58 -0,1 C -1,1 C 90 % 1012,9 hPa 0,0 l/m 0 min 0 min 0 W/m 8,4 km/h (2 Bft)
19.01.2015 01:00 -0,2 C -1,1 C 90 % 1012,9 hPa 0,0 l/m 0 min 0 min 0 W/m 12,6 km/h (3 Bft)
19.01.2015 01:02 -0,2 C -1,1 C 90 % 1012,9 hPa 0,0 l/m 0 min 0 min 0 W/m 10,5 km/h (2 Bft)
19.01.2015 01:04 -0,2 C -1,1 C 90 % 1012,9 hPa 0,0 l/m 0 min 0 min 0 W/m 10,5 km/h (2 Bft)
19.01.2015 01:06 -0,2 C -1,1 C 90 % 1012,9 hPa 0,0 l/m 0 min 0 min 0 W/m 10,5 km/h (2 Bft)
19.01.2015 01:08 -0,2 C -1,1 C 90 % 1012,9 hPa 0,0 l/m 0 min 0 min 0 W/m 10,5 km/h (2 Bft)
19.01.2015 01:10 -0,2 C -1,1 C 90 % 1013,0 hPa 0,0 l/m 0 min 0 min 0 W/m 10,5 km/h (2 Bft)
19.01.2015 01:12 -0,2 C -1,1 C 90 % 1012,9 hPa 0,0 l/m 0 min 0 min 0 W/m 10,5 km/h (2 Bft)
19.01.2015 01:14 -0,2 C -1,1 C 90 % 1012,9 hPa 0,0 l/m 0 min 0 min 0 W/m 8,4 km/h (2 Bft)
19.01.2015 01:16 -0,2 C -1,1 C 90 % 1012,9 hPa 0,0 l/m 0 min 0 min 0 W/m 8,4 km/h (2 Bft)
19.01.2015 01:18 -0,2 C -1,1 C 90 % 1012,9 hPa 0,0 l/m 0 min 0 min 0 W/m 8,4 km/h (2 Bft)
19.01.2015 01:20 -0,2 C -1,1 C 90 % 1012,8 hPa 0,0 l/m 0 min 0 min 0 W/m 12,6 km/h (3 Bft)
19.01.2015 01:22 -0,2 C -1,1 C 91 % 1012,8 hPa 0,0 l/m 0 min 0 min 0 W/m 10,5 km/h (2 Bft)
19.01.2015 01:24 -0,2 C -1,1 C 91 % 1012,9 hPa 0,0 l/m 0 min 0 min 0 W/m 12,6 km/h (3 Bft)
19.01.2015 01:26 -0,3 C -1,1 C 91 % 1012,9 hPa 0,0 l/m 0 min 0 min 0 W/m 12,6 km/h (3 Bft)
19.01.2015 01:28 -0,3 C -1,1 C 91 % 1012,9 hPa 0,0 l/m 0 min 0 min 0 W/m 10,5 km/h (2 Bft)
19.01.2015 01:30 -0,3 C -1,1 C 91 % 1012,9 hPa 0,0 l/m 0 min 0 min 0 W/m 12,6 km/h (3 Bft)
19.01.2015 01:32 -0,3 C -1,1 C 91 % 1012,8 hPa 0,0 l/m 0 min 0 min 0 W/m 8,4 km/h (2 Bft)
19.01.2015 01:34 -0,3 C -1,1 C 91 % 1012,8 hPa 0,0 l/m 0 min 0 min 0 W/m 8,4 km/h (2 Bft)
19.01.2015 01:36 -0,3 C -1,1 C 91 % 1012,8 hPa 0,0 l/m 0 min 0 min 0 W/m 10,5 km/h (2 Bft)
19.01.2015 01:38 -0,3 C -1,7 C 91 % 1012,8 hPa 0,0 l/m 0 min 0 min 0 W/m 14,6 km/h (3 Bft)
19.01.2015 01:40 -0,3 C -1,7 C 91 % 1012,7 hPa 0,0 l/m 0 min 0 min 0 W/m 10,5 km/h (2 Bft)
19.01.2015 01:42 -0,3 C -1,7 C 91 % 1012,8 hPa 0,0 l/m 0 min 0 min 0 W/m 10,5 km/h (2 Bft)
19.01.2015 01:44 -0,3 C -1,7 C 91 % 1012,8 hPa 0,0 l/m 0 min 0 min 0 W/m 6,3 km/h (2 Bft)
19.01.2015 01:46 -0,3 C -1,7 C 91 % 1012,8 hPa 0,0 l/m 0 min 0 min 0 W/m 8,4 km/h (2 Bft)
19.01.2015 01:48 -0,3 C -1,7 C 91 % 1012,8 hPa 0,0 l/m 0 min 0 min 0 W/m 10,5 km/h (2 Bft)
19.01.2015 01:50 -0,4 C -1,7 C 91 % 1012,8 hPa 0,0 l/m 0 min 0 min 0 W/m 10,5 km/h (2 Bft)
19.01.2015 01:52 -0,4 C -1,7 C 91 % 1012,8 hPa 0,0 l/m 0 min 0 min 0 W/m 12,6 km/h (3 Bft)
19.01.2015 01:54 -0,4 C -1,7 C 91 % 1012,8 hPa 0,0 l/m 0 min 0 min 0 W/m 8,4 km/h (2 Bft)
19.01.2015 01:56 -0,4 C -1,7 C 91 % 1012,8 hPa 0,0 l/m 0 min 0 min 0 W/m 8,4 km/h (2 Bft)
19.01.2015 01:58 -0,4 C -1,7 C 91 % 1012,7 hPa 0,0 l/m 0 min 0 min 0 W/m 10,5 km/h (2 Bft)
19.01.2015 02:00 -0,4 C -1,7 C 91 % 1012,7 hPa 0,0 l/m 0 min 0 min 0 W/m 10,5 km/h (2 Bft)
19.01.2015 02:02 -0,4 C -1,7 C 91 % 1012,7 hPa 0,0 l/m 0 min 0 min 0 W/m 8,4 km/h (2 Bft)
19.01.2015 02:04 -0,5 C -2,2 C 91 % 1012,7 hPa 0,0 l/m 0 min 0 min 0 W/m 10,5 km/h (2 Bft)
19.01.2015 02:06 -0,5 C -2,2 C 91 % 1012,8 hPa 0,0 l/m 0 min 0 min 0 W/m 12,6 km/h (3 Bft)
19.01.2015 02:08 -0,5 C -2,2 C 91 % 1012,7 hPa 0,0 l/m 0 min 0 min 0 W/m 8,4 km/h (2 Bft)
19.01.2015 02:10 -0,6 C -2,2 C 91 % 1012,7 hPa 0,0 l/m 0 min 0 min 0 W/m 10,5 km/h (2 Bft)
19.01.2015 02:12 -0,6 C -2,2 C 91 % 1012,7 hPa 0,0 l/m 0 min 0 min 0 W/m 12,6 km/h (3 Bft)
19.01.2015 02:14 -0,6 C -2,2 C 91 % 1012,7 hPa 0,0 l/m 0 min 0 min 0 W/m 10,5 km/h (2 Bft)
19.01.2015 02:16 -0,6 C -2,2 C 91 % 1012,7 hPa 0,0 l/m 0 min 0 min 0 W/m 10,5 km/h (2 Bft)
19.01.2015 02:18 -0,6 C -2,2 C 91 % 1012,8 hPa 0,0 l/m 0 min 0 min 0 W/m 10,5 km/h (2 Bft)
19.01.2015 02:20 -0,6 C -2,2 C 91 % 1012,8 hPa 0,0 l/m 0 min 0 min 0 W/m 8,4 km/h (2 Bft)
19.01.2015 02:22 -0,7 C -2,2 C 91 % 1012,8 hPa 0,0 l/m 0 min 0 min 0 W/m 6,3 km/h (2 Bft)
19.01.2015 02:24 -0,7 C -2,2 C 91 % 1012,7 hPa 0,0 l/m 0 min 0 min 0 W/m 10,5 km/h (2 Bft)
19.01.2015 02:26 -0,7 C -2,2 C 91 % 1012,7 hPa 0,0 l/m 0 min 0 min 0 W/m 8,4 km/h (2 Bft)
19.01.2015 02:28 -0,7 C -2,2 C 91 % 1012,7 hPa 0,0 l/m 0 min 0 min 0 W/m 8,4 km/h (2 Bft)
19.01.2015 02:30 -0,7 C -2,2 C 91 % 1012,7 hPa 0,0 l/m 0 min 0 min 0 W/m 10,5 km/h (2 Bft)
19.01.2015 02:32 -0,7 C -2,2 C 91 % 1012,7 hPa 0,0 l/m 0 min 0 min 0 W/m 8,4 km/h (2 Bft)
19.01.2015 02:34 -0,8 C -2,2 C 91 % 1012,7 hPa 0,0 l/m 0 min 0 min 0 W/m 10,5 km/h (2 Bft)
19.01.2015 02:36 -0,8 C -2,2 C 91 % 1012,7 hPa 0,0 l/m 0 min 0 min 0 W/m 6,3 km/h (2 Bft)
19.01.2015 02:38 -0,8 C -2,2 C 91 % 1012,7 hPa 0,0 l/m 0 min 0 min 0 W/m 8,4 km/h (2 Bft)
19.01.2015 02:40 -0,8 C -2,2 C 91 % 1012,7 hPa 0,0 l/m 0 min 0 min 0 W/m 10,5 km/h (2 Bft)
19.01.2015 02:42 -0,8 C -2,2 C 92 % 1012,7 hPa 0,0 l/m 0 min 0 min 0 W/m 10,5 km/h (2 Bft)
19.01.2015 02:44 -0,8 C -2,2 C 92 % 1012,7 hPa 0,0 l/m 0 min 0 min 0 W/m 8,4 km/h (2 Bft)
19.01.2015 02:46 -0,8 C -2,2 C 92 % 1012,6 hPa 0,0 l/m 0 min 0 min 0 W/m 12,6 km/h (3 Bft)
19.01.2015 02:48 -0,8 C -2,2 C 92 % 1012,6 hPa 0,0 l/m 0 min 0 min 0 W/m 10,5 km/h (2 Bft)
19.01.2015 02:50 -0,8 C -2,2 C 92 % 1012,6 hPa 0,0 l/m 0 min 0 min 0 W/m 8,4 km/h (2 Bft)
19.01.2015 02:52 -0,9 C -2,2 C 92 % 1012,7 hPa 0,0 l/m 0 min 0 min 0 W/m 10,5 km/h (2 Bft)
19.01.2015 02:54 -0,9 C -2,2 C 92 % 1012,7 hPa 0,0 l/m 0 min 0 min 0 W/m 10,5 km/h (2 Bft)
19.01.2015 02:56 -0,9 C -2,2 C 92 % 1012,7 hPa 0,0 l/m 0 min 0 min 0 W/m 12,6 km/h (3 Bft)
19.01.2015 02:58 -0,9 C -2,2 C 92 % 1012,7 hPa 0,0 l/m 0 min 0 min 0 W/m 8,4 km/h (2 Bft)
19.01.2015 03:00 -0,9 C -2,2 C 92 % 1012,7 hPa 0,0 l/m 0 min 0 min 0 W/m 10,5 km/h (2 Bft)
19.01.2015 03:02 -0,9 C -2,2 C 92 % 1012,6 hPa 0,0 l/m 0 min 0 min 0 W/m 8,4 km/h (2 Bft)
19.01.2015 03:04 -0,9 C -2,2 C 92 % 1012,6 hPa 0,0 l/m 0 min 0 min 0 W/m 10,5 km/h (2 Bft)
19.01.2015 03:06 -0,9 C -2,2 C 92 % 1012,6 hPa 0,0 l/m 0 min 0 min 0 W/m 16,7 km/h (3 Bft)
19.01.2015 03:08 -0,9 C -2,2 C 92 % 1012,6 hPa 0,0 l/m 0 min 0 min 0 W/m 8,4 km/h (2 Bft)
19.01.2015 03:10 -0,9 C -2,2 C 92 % 1012,6 hPa 0,0 l/m 0 min 0 min 0 W/m 8,4 km/h (2 Bft)
19.01.2015 03:12 -0,9 C -2,2 C 92 % 1012,6 hPa 0,0 l/m 0 min 0 min 0 W/m 8,4 km/h (2 Bft)
19.01.2015 03:14 -0,9 C -2,2 C 92 % 1012,6 hPa 0,0 l/m 0 min 0 min 0 W/m 8,4 km/h (2 Bft)
19.01.2015 03:16 -1,0 C -2,2 C 92 % 1012,6 hPa 0,0 l/m 0 min 0 min 0 W/m 8,4 km/h (2 Bft)
19.01.2015 03:18 -1,0 C -2,2 C 92 % 1012,6 hPa 0,0 l/m 0 min 0 min 0 W/m 10,5 km/h (2 Bft)
19.01.2015 03:20 -1,0 C -2,2 C 92 % 1012,5 hPa 0,0 l/m 0 min 0 min 0 W/m 10,5 km/h (2 Bft)
19.01.2015 03:22 -1,0 C -2,2 C 92 % 1012,4 hPa 0,0 l/m 0 min 0 min 0 W/m 8,4 km/h (2 Bft)
19.01.2015 03:24 -1,0 C -2,2 C 92 % 1012,4 hPa 0,0 l/m 0 min 0 min 0 W/m 12,6 km/h (3 Bft)
19.01.2015 03:26 -1,0 C -2,2 C 92 % 1012,4 hPa 0,0 l/m 0 min 0 min 0 W/m 8,4 km/h (2 Bft)
19.01.2015 03:28 -1,0 C -2,2 C 92 % 1012,4 hPa 0,0 l/m 0 min 0 min 0 W/m 8,4 km/h (2 Bft)
19.01.2015 03:30 -1,0 C -2,2 C 92 % 1012,4 hPa 0,0 l/m 0 min 0 min 0 W/m 8,4 km/h (2 Bft)
19.01.2015 03:32 -1,0 C -2,2 C 92 % 1012,4 hPa 0,0 l/m 0 min 0 min 0 W/m 6,3 km/h (2 Bft)
19.01.2015 03:34 -1,0 C -2,2 C 92 % 1012,4 hPa 0,0 l/m 0 min 0 min 0 W/m 10,5 km/h (2 Bft)
19.01.2015 03:36 -1,0 C -2,2 C 92 % 1012,3 hPa 0,0 l/m 0 min 0 min 0 W/m 10,5 km/h (2 Bft)
19.01.2015 03:38 -1,0 C -2,2 C 92 % 1012,3 hPa 0,0 l/m 0 min 0 min 0 W/m 8,4 km/h (2 Bft)
19.01.2015 03:40 -1,0 C -2,2 C 92 % 1012,3 hPa 0,0 l/m 0 min 0 min 0 W/m 8,4 km/h (2 Bft)
19.01.2015 03:42 -1,0 C -2,2 C 92 % 1012,4 hPa 0,0 l/m 0 min 0 min 0 W/m 8,4 km/h (2 Bft)
19.01.2015 03:44 -1,0 C -2,2 C 92 % 1012,3 hPa 0,0 l/m 0 min 0 min 0 W/m 10,5 km/h (2 Bft)
19.01.2015 03:46 -1,0 C -2,2 C 92 % 1012,2 hPa 0,0 l/m 0 min 0 min 0 W/m 8,4 km/h (2 Bft)
19.01.2015 03:48 -1,0 C -2,2 C 92 % 1012,2 hPa 0,0 l/m 0 min 0 min 0 W/m 10,5 km/h (2 Bft)
19.01.2015 03:50 -1,0 C -2,2 C 92 % 1012,2 hPa 0,0 l/m 0 min 0 min 0 W/m 10,5 km/h (2 Bft)
19.01.2015 03:52 -1,0 C -2,2 C 92 % 1012,2 hPa 0,0 l/m 0 min 0 min 0 W/m 8,4 km/h (2 Bft)
19.01.2015 03:54 -1,0 C -2,2 C 92 % 1012,2 hPa 0,0 l/m 0 min 0 min 0 W/m 10,5 km/h (2 Bft)
19.01.2015 03:56 -1,0 C -1,7 C 93 % 1012,2 hPa 0,0 l/m 0 min 0 min 0 W/m 10,5 km/h (2 Bft)
19.01.2015 03:58 -1,0 C -1,7 C 93 % 1012,2 hPa 0,0 l/m 0 min 0 min 0 W/m 12,6 km/h (3 Bft)
19.01.2015 04:00 -1,0 C -2,2 C 93 % 1012,1 hPa 0,0 l/m 0 min 0 min 0 W/m 10,5 km/h (2 Bft)
19.01.2015 04:02 -1,0 C -2,2 C 93 % 1012,1 hPa 0,0 l/m 0 min 0 min 0 W/m 8,4 km/h (2 Bft)
19.01.2015 04:04 -1,0 C -2,2 C 93 % 1012,2 hPa 0,0 l/m 0 min 0 min 0 W/m 10,5 km/h (2 Bft)
19.01.2015 04:06 -1,0 C -2,2 C 93 % 1012,0 hPa 0,0 l/m 0 min 0 min 0 W/m 10,5 km/h (2 Bft)
19.01.2015 04:08 -1,0 C -2,2 C 93 % 1012,0 hPa 0,0 l/m 0 min 0 min 0 W/m 10,5 km/h (2 Bft)
19.01.2015 04:10 -1,0 C -2,2 C 93 % 1012,0 hPa 0,0 l/m 0 min 0 min 0 W/m 10,5 km/h (2 Bft)
19.01.2015 04:12 -1,0 C -2,2 C 93 % 1011,9 hPa 0,0 l/m 0 min 0 min 0 W/m 8,4 km/h (2 Bft)
19.01.2015 04:14 -1,0 C -2,2 C 93 % 1012,0 hPa 0,0 l/m 0 min 0 min 0 W/m 12,6 km/h (3 Bft)
19.01.2015 04:16 -1,0 C -2,2 C 93 % 1012,0 hPa 0,0 l/m 0 min 0 min 0 W/m 8,4 km/h (2 Bft)
19.01.2015 04:18 -1,0 C -2,2 C 93 % 1012,0 hPa 0,0 l/m 0 min 0 min 0 W/m 8,4 km/h (2 Bft)
19.01.2015 04:20 -1,0 C -2,2 C 93 % 1011,9 hPa 0,0 l/m 0 min 0 min 0 W/m 8,4 km/h (2 Bft)
19.01.2015 04:22 -1,0 C -2,2 C 93 % 1012,0 hPa 0,0 l/m 0 min 0 min 0 W/m 8,4 km/h (2 Bft)
19.01.2015 04:24 -1,0 C -2,2 C 93 % 1011,9 hPa 0,0 l/m 0 min 0 min 0 W/m 8,4 km/h (2 Bft)
19.01.2015 04:26 -1,0 C -2,2 C 93 % 1012,0 hPa 0,0 l/m 0 min 0 min 0 W/m 8,4 km/h (2 Bft)
19.01.2015 04:28 -1,0 C -2,2 C 93 % 1012,0 hPa 0,0 l/m 0 min 0 min 0 W/m 8,4 km/h (2 Bft)
19.01.2015 04:30 -1,1 C -2,2 C 93 % 1012,0 hPa 0,0 l/m 0 min 0 min 0 W/m 10,5 km/h (2 Bft)
19.01.2015 04:32 -1,1 C -2,2 C 93 % 1012,0 hPa 0,0 l/m 0 min 0 min 0 W/m 10,5 km/h (2 Bft)
19.01.2015 04:34 -1,1 C -2,2 C 93 % 1012,0 hPa 0,0 l/m 0 min 0 min 0 W/m 6,3 km/h (2 Bft)
19.01.2015 04:36 -1,1 C -2,2 C 93 % 1012,0 hPa 0,0 l/m 0 min 0 min 0 W/m 10,5 km/h (2 Bft)
19.01.2015 04:38 -1,1 C -2,2 C 93 % 1012,0 hPa 0,0 l/m 0 min 0 min 0 W/m 10,5 km/h (2 Bft)
19.01.2015 04:40 -1,1 C -2,2 C 93 % 1012,0 hPa 0,0 l/m 0 min 0 min 0 W/m 8,4 km/h (2 Bft)
19.01.2015 04:42 -1,1 C -2,2 C 93 % 1012,0 hPa 0,0 l/m 0 min 0 min 0 W/m 8,4 km/h (2 Bft)
19.01.2015 04:44 -1,1 C -2,2 C 93 % 1012,0 hPa 0,0 l/m 0 min 0 min 0 W/m 10,5 km/h (2 Bft)
19.01.2015 04:46 -1,1 C -2,2 C 93 % 1012,0 hPa 0,0 l/m 0 min 0 min 0 W/m 8,4 km/h (2 Bft)
19.01.2015 04:48 -1,1 C -2,2 C 93 % 1011,9 hPa 0,0 l/m 0 min 0 min 0 W/m 6,3 km/h (2 Bft)
19.01.2015 04:50 -1,1 C -2,2 C 93 % 1011,9 hPa 0,0 l/m 0 min 0 min 0 W/m 10,5 km/h (2 Bft)
19.01.2015 04:52 -1,1 C -2,2 C 93 % 1011,9 hPa 0,0 l/m 0 min 0 min 0 W/m 10,5 km/h (2 Bft)
19.01.2015 04:54 -1,1 C -2,2 C 93 % 1011,9 hPa 0,0 l/m 0 min 0 min 0 W/m 12,6 km/h (3 Bft)
19.01.2015 04:56 -1,1 C -2,2 C 93 % 1011,9 hPa 0,0 l/m 0 min 0 min 0 W/m 10,5 km/h (2 Bft)
19.01.2015 04:58 -1,1 C -2,2 C 93 % 1012,0 hPa 0,0 l/m 0 min 0 min 0 W/m 10,5 km/h (2 Bft)
19.01.2015 05:00 -1,1 C -2,2 C 93 % 1012,0 hPa 0,0 l/m 0 min 0 min 0 W/m 12,6 km/h (3 Bft)
19.01.2015 05:02 -1,1 C -2,2 C 93 % 1012,0 hPa 0,0 l/m 0 min 0 min 0 W/m 10,5 km/h (2 Bft)
19.01.2015 05:04 -1,1 C -2,2 C 93 % 1011,9 hPa 0,0 l/m 0 min 0 min 0 W/m 8,4 km/h (2 Bft)
19.01.2015 05:06 -1,2 C -2,2 C 93 % 1011,9 hPa 0,0 l/m 0 min 0 min 0 W/m 10,5 km/h (2 Bft)
19.01.2015 05:08 -1,1 C -2,2 C 93 % 1011,9 hPa 0,0 l/m 0 min 0 min 0 W/m 10,5 km/h (2 Bft)
19.01.2015 05:10 -1,1 C -2,2 C 93 % 1011,9 hPa 0,0 l/m 0 min 0 min 0 W/m 10,5 km/h (2 Bft)
19.01.2015 05:12 -1,2 C -2,2 C 93 % 1011,9 hPa 0,0 l/m 0 min 0 min 0 W/m 12,6 km/h (3 Bft)
19.01.2015 05:14 -1,2 C -2,2 C 93 % 1011,8 hPa 0,0 l/m 0 min 0 min 0 W/m 10,5 km/h (2 Bft)
19.01.2015 05:16 -1,2 C -2,2 C 93 % 1011,8 hPa 0,0 l/m 0 min 0 min 0 W/m 8,4 km/h (2 Bft)
19.01.2015 05:18 -1,2 C -2,2 C 93 % 1011,8 hPa 0,0 l/m 0 min 0 min 0 W/m 10,5 km/h (2 Bft)
19.01.2015 05:20 -1,2 C -2,2 C 93 % 1011,8 hPa 0,0 l/m 0 min 0 min 0 W/m 8,4 km/h (2 Bft)
19.01.2015 05:22 -1,2 C -2,2 C 93 % 1011,8 hPa 0,0 l/m 0 min 0 min 0 W/m 10,5 km/h (2 Bft)
19.01.2015 05:24 -1,2 C -2,2 C 93 % 1011,8 hPa 0,0 l/m 0 min 0 min 0 W/m 10,5 km/h (2 Bft)
19.01.2015 05:26 -1,2 C -2,2 C 93 % 1011,8 hPa 0,0 l/m 0 min 0 min 0 W/m 10,5 km/h (2 Bft)
19.01.2015 05:28 -1,2 C -2,2 C 93 % 1011,8 hPa 0,0 l/m 0 min 0 min 0 W/m 8,4 km/h (2 Bft)
19.01.2015 05:30 -1,2 C -2,2 C 93 % 1011,8 hPa 0,0 l/m 0 min 0 min 0 W/m 6,3 km/h (2 Bft)
19.01.2015 05:32 -1,2 C -2,2 C 93 % 1011,8 hPa 0,0 l/m 0 min 0 min 0 W/m 10,5 km/h (2 Bft)
19.01.2015 05:34 -1,2 C -2,2 C 93 % 1011,8 hPa 0,0 l/m 0 min 0 min 0 W/m 8,4 km/h (2 Bft)
19.01.2015 05:36 -1,3 C -2,2 C 93 % 1011,8 hPa 0,0 l/m 0 min 0 min 0 W/m 12,6 km/h (3 Bft)
19.01.2015 05:38 -1,3 C -2,2 C 93 % 1011,8 hPa 0,0 l/m 0 min 0 min 0 W/m 10,5 km/h (2 Bft)
19.01.2015 05:40 -1,3 C -2,2 C 93 % 1011,8 hPa 0,0 l/m 0 min 0 min 0 W/m 10,5 km/h (2 Bft)
19.01.2015 05:42 -1,3 C -2,2 C 93 % 1011,8 hPa 0,0 l/m 0 min 0 min 0 W/m 12,6 km/h (3 Bft)
19.01.2015 05:44 -1,3 C -2,8 C 93 % 1011,7 hPa 0,0 l/m 0 min 0 min 0 W/m 8,4 km/h (2 Bft)
19.01.2015 05:46 -1,3 C -2,2 C 93 % 1011,7 hPa 0,0 l/m 0 min 0 min 0 W/m 10,5 km/h (2 Bft)
19.01.2015 05:48 -1,3 C -2,8 C 93 % 1011,8 hPa 0,0 l/m 0 min 0 min 0 W/m 10,5 km/h (2 Bft)
19.01.2015 05:50 -1,3 C -2,8 C 93 % 1011,7 hPa 0,0 l/m 0 min 0 min 0 W/m 10,5 km/h (2 Bft)
19.01.2015 05:52 -1,3 C -2,8 C 93 % 1011,8 hPa 0,0 l/m 0 min 0 min 0 W/m 10,5 km/h (2 Bft)
19.01.2015 05:54 -1,3 C -2,8 C 93 % 1011,8 hPa 0,0 l/m 0 min 0 min 0 W/m 6,3 km/h (2 Bft)
19.01.2015 05:56 -1,4 C -2,8 C 93 % 1011,8 hPa 0,0 l/m 0 min 0 min 0 W/m 10,5 km/h (2 Bft)
19.01.2015 05:58 -1,4 C -2,8 C 93 % 1011,8 hPa 0,0 l/m 0 min 0 min 0 W/m 6,3 km/h (2 Bft)
19.01.2015 06:00 -1,4 C -2,8 C 93 % 1011,8 hPa 0,0 l/m 0 min 0 min 0 W/m 8,4 km/h (2 Bft)
19.01.2015 06:02 -1,4 C -2,8 C 93 % 1011,8 hPa 0,0 l/m 0 min 0 min 0 W/m 8,4 km/h (2 Bft)
19.01.2015 06:06 -1,4 C -2,8 C 93 % 1011,8 hPa 0,0 l/m 0 min 0 min 0 W/m 8,4 km/h (2 Bft)
19.01.2015 06:08 -1,4 C -2,8 C 93 % 1011,7 hPa 0,0 l/m 0 min 0 min 0 W/m 6,3 km/h (2 Bft)
19.01.2015 06:10 -1,4 C -2,8 C 93 % 1011,7 hPa 0,0 l/m 0 min 0 min 0 W/m 8,4 km/h (2 Bft)
19.01.2015 06:12 -1,4 C -2,8 C 93 % 1011,7 hPa 0,0 l/m 0 min 0 min 0 W/m 6,3 km/h (2 Bft)
19.01.2015 06:14 -1,5 C -2,8 C 93 % 1011,8 hPa 0,0 l/m 0 min 0 min 0 W/m 8,4 km/h (2 Bft)
19.01.2015 06:16 -1,5 C -2,8 C 93 % 1011,7 hPa 0,0 l/m 0 min 0 min 0 W/m 6,3 km/h (2 Bft)
19.01.2015 06:18 -1,5 C -2,8 C 93 % 1011,7 hPa 0,0 l/m 0 min 0 min 0 W/m 6,3 km/h (2 Bft)
19.01.2015 06:20 -1,5 C -2,8 C 93 % 1011,7 hPa 0,0 l/m 0 min 0 min 0 W/m 6,3 km/h (2 Bft)
19.01.2015 06:22 -1,6 C -2,8 C 93 % 1011,8 hPa 0,0 l/m 0 min 0 min 0 W/m 4,2 km/h (1 Bft)
19.01.2015 06:24 -1,6 C -2,8 C 93 % 1011,7 hPa 0,0 l/m 0 min 0 min 0 W/m 6,3 km/h (2 Bft)
19.01.2015 06:26 -1,6 C -2,8 C 94 % 1011,8 hPa 0,0 l/m 0 min 0 min 0 W/m 6,3 km/h (2 Bft)
19.01.2015 06:28 -1,6 C -2,8 C 94 % 1011,7 hPa 0,0 l/m 0 min 0 min 0 W/m 6,3 km/h (2 Bft)
19.01.2015 06:30 -1,6 C -2,8 C 94 % 1011,7 hPa 0,0 l/m 0 min 0 min 0 W/m 6,3 km/h (2 Bft)
19.01.2015 06:32 -1,6 C -2,8 C 94 % 1011,7 hPa 0,0 l/m 0 min 0 min 0 W/m 6,3 km/h (2 Bft)
19.01.2015 06:34 -1,6 C -2,8 C 94 % 1011,7 hPa 0,0 l/m 0 min 0 min 0 W/m 4,2 km/h (1 Bft)
19.01.2015 06:36 -1,6 C -2,8 C 94 % 1011,8 hPa 0,0 l/m 0 min 0 min 0 W/m 6,3 km/h (2 Bft)
19.01.2015 06:38 -1,6 C -2,8 C 94 % 1011,7 hPa 0,0 l/m 0 min 0 min 0 W/m 4,2 km/h (1 Bft)
19.01.2015 06:40 -1,6 C -2,8 C 94 % 1011,8 hPa 0,0 l/m 0 min 0 min 0 W/m 4,2 km/h (1 Bft)
19.01.2015 06:42 -1,6 C -2,8 C 93 % 1011,8 hPa 0,0 l/m 0 min 0 min 0 W/m 6,3 km/h (2 Bft)
19.01.2015 06:44 -1,6 C -2,8 C 93 % 1011,8 hPa 0,0 l/m 0 min 0 min 0 W/m 6,3 km/h (2 Bft)
19.01.2015 06:46 -1,7 C -2,8 C 94 % 1011,8 hPa 0,0 l/m 0 min 0 min 0 W/m 6,3 km/h (2 Bft)
19.01.2015 06:48 -1,7 C -2,8 C 94 % 1011,8 hPa 0,0 l/m 0 min 0 min 0 W/m 4,2 km/h (1 Bft)
19.01.2015 06:50 -1,7 C -2,8 C 94 % 1011,9 hPa 0,0 l/m 0 min 0 min 0 W/m 8,4 km/h (2 Bft)
19.01.2015 06:52 -1,7 C -2,8 C 94 % 1011,9 hPa 0,0 l/m 0 min 0 min 0 W/m 6,3 km/h (2 Bft)
19.01.2015 06:54 -1,7 C -2,8 C 94 % 1011,9 hPa 0,0 l/m 0 min 0 min 0 W/m 4,2 km/h (1 Bft)
19.01.2015 06:56 -1,7 C -2,8 C 94 % 1011,9 hPa 0,0 l/m 0 min 0 min 0 W/m 6,3 km/h (2 Bft)
19.01.2015 06:58 -1,7 C -2,8 C 94 % 1012,0 hPa 0,0 l/m 0 min 0 min 0 W/m 6,3 km/h (2 Bft)
19.01.2015 07:00 -1,7 C -2,8 C 94 % 1012,0 hPa 0,0 l/m 0 min 0 min 0 W/m 6,3 km/h (2 Bft)
19.01.2015 07:02 -1,7 C -2,8 C 94 % 1011,9 hPa 0,0 l/m 0 min 0 min 0 W/m 6,3 km/h (2 Bft)
19.01.2015 07:04 -1,7 C -2,8 C 94 % 1012,0 hPa 0,0 l/m 0 min 0 min 0 W/m 6,3 km/h (2 Bft)
19.01.2015 07:06 -1,7 C -2,8 C 94 % 1011,9 hPa 0,0 l/m 0 min 0 min 0 W/m 6,3 km/h (2 Bft)
19.01.2015 07:08 -1,7 C -2,8 C 94 % 1011,9 hPa 0,0 l/m 0 min 0 min 0 W/m 8,4 km/h (2 Bft)
19.01.2015 07:10 -1,7 C -2,8 C 94 % 1011,9 hPa 0,0 l/m 0 min 0 min 0 W/m 8,4 km/h (2 Bft)
19.01.2015 07:12 -1,7 C -2,8 C 94 % 1011,9 hPa 0,0 l/m 0 min 0 min 0 W/m 6,3 km/h (2 Bft)
19.01.2015 07:14 -1,7 C -2,8 C 94 % 1011,9 hPa 0,0 l/m 0 min 0 min 0 W/m 6,3 km/h (2 Bft)
19.01.2015 07:16 -1,7 C -2,8 C 94 % 1011,9 hPa 0,0 l/m 0 min 0 min 0 W/m 4,2 km/h (1 Bft)
19.01.2015 07:18 -1,7 C -2,8 C 94 % 1011,9 hPa 0,0 l/m 0 min 0 min 0 W/m 6,3 km/h (2 Bft)
19.01.2015 07:20 -1,7 C -2,8 C 94 % 1011,9 hPa 0,0 l/m 0 min 0 min 0 W/m 6,3 km/h (2 Bft)
19.01.2015 07:22 -1,7 C -2,8 C 94 % 1011,9 hPa 0,0 l/m 0 min 0 min 0 W/m 6,3 km/h (2 Bft)
19.01.2015 07:24 -1,7 C -2,8 C 94 % 1011,9 hPa 0,0 l/m 0 min 0 min 0 W/m 6,3 km/h (2 Bft)
19.01.2015 07:26 -1,7 C -2,8 C 94 % 1011,9 hPa 0,0 l/m 0 min 0 min 0 W/m 8,4 km/h (2 Bft)
19.01.2015 07:28 -1,7 C -2,8 C 94 % 1011,9 hPa 0,0 l/m 0 min 0 min 0 W/m 4,2 km/h (1 Bft)
19.01.2015 07:30 -1,7 C -2,8 C 94 % 1011,9 hPa 0,0 l/m 0 min 0 min 0 W/m 6,3 km/h (2 Bft)
19.01.2015 07:32 -1,7 C -2,8 C 94 % 1011,9 hPa 0,0 l/m 0 min 0 min 0 W/m 6,3 km/h (2 Bft)
19.01.2015 07:34 -1,7 C -2,8 C 94 % 1011,9 hPa 0,0 l/m 0 min 0 min 0 W/m 6,3 km/h (2 Bft)
19.01.2015 07:36 -1,7 C -2,8 C 94 % 1011,9 hPa 0,0 l/m 0 min 0 min 0 W/m 8,4 km/h (2 Bft)
19.01.2015 07:38 -1,7 C -2,8 C 94 % 1011,9 hPa 0,0 l/m 0 min 0 min 0 W/m 6,3 km/h (2 Bft)
19.01.2015 07:40 -1,7 C -2,8 C 94 % 1011,9 hPa 0,0 l/m 0 min 0 min 0 W/m 6,3 km/h (2 Bft)
19.01.2015 07:42 -1,7 C -2,8 C 94 % 1011,9 hPa 0,0 l/m 0 min 0 min 0 W/m 8,4 km/h (2 Bft)
19.01.2015 07:44 -1,7 C -2,8 C 94 % 1011,9 hPa 0,0 l/m 0 min 0 min 0 W/m 6,3 km/h (2 Bft)
19.01.2015 07:46 -1,7 C -2,8 C 94 % 1011,9 hPa 0,0 l/m 0 min 0 min 0 W/m 8,4 km/h (2 Bft)
19.01.2015 07:48 -1,7 C -2,8 C 94 % 1011,9 hPa 0,0 l/m 0 min 0 min 0 W/m 8,4 km/h (2 Bft)
19.01.2015 07:50 -1,7 C -2,8 C 94 % 1011,8 hPa 0,0 l/m 0 min 0 min 0 W/m 6,3 km/h (2 Bft)
19.01.2015 07:52 -1,7 C -2,8 C 94 % 1011,9 hPa 0,0 l/m 0 min 0 min 0 W/m 8,4 km/h (2 Bft)
19.01.2015 07:54 -1,7 C -2,8 C 94 % 1011,8 hPa 0,0 l/m 0 min 0 min 0 W/m 6,3 km/h (2 Bft)
19.01.2015 07:56 -1,7 C -2,8 C 94 % 1011,9 hPa 0,0 l/m 0 min 0 min 0 W/m 8,4 km/h (2 Bft)
19.01.2015 07:58 -1,7 C -2,8 C 94 % 1011,9 hPa 0,0 l/m 0 min 0 min 0 W/m 6,3 km/h (2 Bft)
19.01.2015 08:00 -1,7 C -2,8 C 94 % 1012,0 hPa 0,0 l/m 0 min 0 min 0 W/m 8,4 km/h (2 Bft)
19.01.2015 08:02 -1,7 C -2,2 C 94 % 1012,0 hPa 0,0 l/m 0 min 0 min 0 W/m 6,3 km/h (2 Bft)
19.01.2015 08:04 -1,6 C -2,2 C 94 % 1012,0 hPa 0,0 l/m 0 min 0 min 0 W/m 6,3 km/h (2 Bft)
19.01.2015 08:06 -1,6 C -2,2 C 94 % 1012,0 hPa 0,0 l/m 0 min 0 min 0 W/m 6,3 km/h (2 Bft)
19.01.2015 08:08 -1,6 C -2,2 C 94 % 1012,0 hPa 0,0 l/m 0 min 0 min 0 W/m 6,3 km/h (2 Bft)
19.01.2015 08:10 -1,6 C -2,2 C 94 % 1012,0 hPa 0,0 l/m 0 min 0 min 0 W/m 6,3 km/h (2 Bft)
19.01.2015 08:12 -1,6 C -2,2 C 94 % 1012,0 hPa 0,0 l/m 0 min 0 min 0 W/m 4,2 km/h (1 Bft)
19.01.2015 08:14 -1,6 C -2,2 C 94 % 1012,0 hPa 0,0 l/m 0 min 0 min 0 W/m 8,4 km/h (2 Bft)
19.01.2015 08:16 -1,6 C -2,2 C 94 % 1012,1 hPa 0,0 l/m 0 min 0 min 0 W/m 10,5 km/h (2 Bft)
19.01.2015 08:18 -1,6 C -2,2 C 95 % 1012,1 hPa 0,0 l/m 0 min 0 min 0 W/m 8,4 km/h (2 Bft)
19.01.2015 08:20 -1,6 C -2,2 C 95 % 1012,1 hPa 0,0 l/m 0 min 0 min 0 W/m 6,3 km/h (2 Bft)
19.01.2015 08:22 -1,6 C -2,2 C 95 % 1012,1 hPa 0,0 l/m 0 min 0 min 0 W/m 6,3 km/h (2 Bft)
19.01.2015 08:24 -1,6 C -2,2 C 95 % 1012,1 hPa 0,0 l/m 0 min 0 min 0 W/m 6,3 km/h (2 Bft)
19.01.2015 08:26 -1,5 C -2,2 C 95 % 1012,0 hPa 0,0 l/m 0 min 0 min 0 W/m 6,3 km/h (2 Bft)
19.01.2015 08:28 -1,5 C -2,2 C 95 % 1012,1 hPa 0,0 l/m 0 min 0 min 3 W/m 8,4 km/h (2 Bft)
19.01.2015 08:30 -1,5 C -2,2 C 95 % 1012,1 hPa 0,0 l/m 0 min 0 min 5 W/m 8,4 km/h (2 Bft)
19.01.2015 08:32 -1,5 C -2,2 C 95 % 1012,1 hPa 0,0 l/m 0 min 0 min 5 W/m 6,3 km/h (2 Bft)
19.01.2015 08:34 -1,5 C -2,2 C 95 % 1012,1 hPa 0,0 l/m 0 min 0 min 5 W/m 6,3 km/h (2 Bft)
19.01.2015 08:36 -1,5 C -2,2 C 95 % 1012,2 hPa 0,0 l/m 0 min 0 min 6 W/m 4,2 km/h (1 Bft)
19.01.2015 08:38 -1,5 C -2,2 C 95 % 1012,2 hPa 0,0 l/m 0 min 0 min 7 W/m 6,3 km/h (2 Bft)
19.01.2015 08:40 -1,5 C -2,2 C 95 % 1012,2 hPa 0,0 l/m 0 min 0 min 8 W/m 4,2 km/h (1 Bft)
19.01.2015 08:42 -1,5 C -2,2 C 95 % 1012,3 hPa 0,0 l/m 0 min 0 min 10 W/m 6,3 km/h (2 Bft)
19.01.2015 08:44 -1,5 C -2,8 C 95 % 1012,2 hPa 0,0 l/m 2 min 0 min 11 W/m 6,3 km/h (2 Bft)
19.01.2015 08:46 -1,5 C -2,8 C 95 % 1012,3 hPa 0,0 l/m 0 min 0 min 12 W/m 6,3 km/h (2 Bft)
19.01.2015 08:48 -1,5 C -2,8 C 95 % 1012,2 hPa 0,0 l/m 0 min 0 min 13 W/m 8,4 km/h (2 Bft)
19.01.2015 08:50 -1,5 C -2,2 C 95 % 1012,2 hPa 0,0 l/m 0 min 0 min 14 W/m 8,4 km/h (2 Bft)
19.01.2015 08:52 -1,5 C -2,2 C 95 % 1012,3 hPa 0,0 l/m 0 min 0 min 16 W/m 6,3 km/h (2 Bft)
19.01.2015 08:54 -1,5 C -2,2 C 95 % 1012,3 hPa 0,0 l/m 0 min 0 min 18 W/m 6,3 km/h (2 Bft)
19.01.2015 08:56 -1,5 C -2,2 C 95 % 1012,3 hPa 0,0 l/m 0 min 0 min 20 W/m 8,4 km/h (2 Bft)
19.01.2015 08:58 -1,5 C -2,2 C 95 % 1012,3 hPa 0,0 l/m 0 min 0 min 22 W/m 6,3 km/h (2 Bft)
19.01.2015 09:00 -1,5 C -2,2 C 95 % 1012,2 hPa 0,0 l/m 0 min 0 min 25 W/m 6,3 km/h (2 Bft)
19.01.2015 09:02 -1,4 C -2,2 C 95 % 1012,2 hPa 0,0 l/m 0 min 0 min 28 W/m 6,3 km/h (2 Bft)
19.01.2015 09:04 -1,4 C -2,2 C 95 % 1012,2 hPa 0,0 l/m 0 min 0 min 31 W/m 10,5 km/h (2 Bft)
19.01.2015 09:06 -1,4 C -2,2 C 95 % 1012,3 hPa 0,0 l/m 0 min 0 min 34 W/m 8,4 km/h (2 Bft)
19.01.2015 09:08 -1,4 C -2,2 C 95 % 1012,3 hPa 0,0 l/m 2 min 0 min 38 W/m 10,5 km/h (2 Bft)
19.01.2015 09:10 -1,4 C -2,2 C 95 % 1012,3 hPa 0,0 l/m 2 min 0 min 40 W/m 10,5 km/h (2 Bft)
19.01.2015 09:12 -1,4 C -2,2 C 95 % 1012,3 hPa 0,0 l/m 2 min 0 min 44 W/m 6,3 km/h (2 Bft)
19.01.2015 09:14 -1,4 C -2,2 C 95 % 1012,3 hPa 0,0 l/m 2 min 0 min 48 W/m 10,5 km/h (2 Bft)
19.01.2015 09:16 -1,4 C -1,7 C 95 % 1012,3 hPa 0,0 l/m 2 min 0 min 54 W/m 6,3 km/h (2 Bft)
19.01.2015 09:18 -1,4 C -1,7 C 95 % 1012,4 hPa 0,0 l/m 2 min 0 min 58 W/m 6,3 km/h (2 Bft)
19.01.2015 09:20 -1,3 C -1,7 C 95 % 1012,4 hPa 0,0 l/m 2 min 0 min 61 W/m 8,4 km/h (2 Bft)
19.01.2015 09:22 -1,3 C -1,7 C 95 % 1012,4 hPa 0,0 l/m 2 min 0 min 63 W/m 6,3 km/h (2 Bft)
19.01.2015 09:24 -1,3 C -1,7 C 95 % 1012,3 hPa 0,0 l/m 2 min 0 min 62 W/m 6,3 km/h (2 Bft)
19.01.2015 09:26 -1,3 C -1,7 C 95 % 1012,3 hPa 0,0 l/m 2 min 0 min 62 W/m 8,4 km/h (2 Bft)
19.01.2015 09:28 -1,2 C -1,7 C 95 % 1012,4 hPa 0,0 l/m 2 min 0 min 59 W/m 6,3 km/h (2 Bft)
19.01.2015 09:30 -1,2 C -1,7 C 95 % 1012,3 hPa 0,0 l/m 0 min 0 min 56 W/m 6,3 km/h (2 Bft)
19.01.2015 09:32 -1,2 C -1,7 C 95 % 1012,3 hPa 0,0 l/m 0 min 0 min 54 W/m 8,4 km/h (2 Bft)
19.01.2015 09:34 -1,2 C -1,7 C 95 % 1012,4 hPa 0,0 l/m 0 min 0 min 54 W/m 4,2 km/h (1 Bft)
19.01.2015 09:36 -1,2 C -1,7 C 95 % 1012,3 hPa 0,0 l/m 0 min 0 min 54 W/m 6,3 km/h (2 Bft)
19.01.2015 09:38 -1,2 C -1,7 C 95 % 1012,4 hPa 0,0 l/m 0 min 0 min 57 W/m 8,4 km/h (2 Bft)
19.01.2015 09:40 -1,1 C -1,7 C 95 % 1012,4 hPa 0,0 l/m 0 min 0 min 62 W/m 8,4 km/h (2 Bft)
19.01.2015 09:42 -1,1 C -1,7 C 95 % 1012,3 hPa 0,0 l/m 0 min 0 min 66 W/m 8,4 km/h (2 Bft)
19.01.2015 09:44 -1,1 C -1,7 C 95 % 1012,3 hPa 0,0 l/m 2 min 0 min 74 W/m 6,3 km/h (2 Bft)
19.01.2015 09:46 -1,1 C -1,1 C 95 % 1012,4 hPa 0,0 l/m 2 min 0 min 80 W/m 6,3 km/h (2 Bft)
19.01.2015 09:48 -1,1 C -1,1 C 95 % 1012,4 hPa 0,0 l/m 2 min 0 min 86 W/m 6,3 km/h (2 Bft)
19.01.2015 09:50 -1,1 C -1,1 C 95 % 1012,4 hPa 0,0 l/m 2 min 0 min 93 W/m 8,4 km/h (2 Bft)
19.01.2015 09:52 -1,0 C -1,1 C 95 % 1012,4 hPa 0,0 l/m 2 min 0 min 112 W/m 8,4 km/h (2 Bft)
19.01.2015 09:54 -1,0 C -1,1 C 95 % 1012,4 hPa 0,0 l/m 2 min 0 min 122 W/m 12,6 km/h (3 Bft)
19.01.2015 09:56 -0,9 C -1,1 C 95 % 1012,4 hPa 0,0 l/m 2 min 0 min 119 W/m 6,3 km/h (2 Bft)
19.01.2015 09:58 -0,9 C -1,1 C 95 % 1012,3 hPa 0,0 l/m 2 min 0 min 124 W/m 8,4 km/h (2 Bft)
19.01.2015 10:00 -0,9 C -1,1 C 95 % 1012,4 hPa 0,0 l/m 2 min 0 min 125 W/m 10,5 km/h (2 Bft)
19.01.2015 10:02 -0,9 C -1,1 C 95 % 1012,4 hPa 0,0 l/m 2 min 0 min 126 W/m 10,5 km/h (2 Bft)
19.01.2015 10:06 -0,8 C -0,6 C 95 % 1012,3 hPa 0,0 l/m 2 min 0 min 106 W/m 8,4 km/h (2 Bft)
19.01.2015 10:08 -0,7 C -0,6 C 95 % 1012,4 hPa 0,0 l/m 2 min 0 min 99 W/m 8,4 km/h (2 Bft)
19.01.2015 10:10 -0,7 C -0,6 C 95 % 1012,3 hPa 0,0 l/m 2 min 0 min 97 W/m 6,3 km/h (2 Bft)
19.01.2015 10:12 -0,7 C -0,6 C 95 % 1012,3 hPa 0,0 l/m 0 min 0 min 93 W/m 10,5 km/h (2 Bft)
19.01.2015 10:14 -0,7 C -0,6 C 95 % 1012,4 hPa 0,0 l/m 0 min 0 min 91 W/m 6,3 km/h (2 Bft)
19.01.2015 10:16 -0,6 C -0,6 C 95 % 1012,4 hPa 0,0 l/m 0 min 0 min 90 W/m 14,6 km/h (3 Bft)
19.01.2015 10:18 -0,6 C -0,6 C 95 % 1012,3 hPa 0,0 l/m 0 min 0 min 90 W/m 8,4 km/h (2 Bft)
19.01.2015 10:20 -0,6 C -0,6 C 95 % 1012,3 hPa 0,0 l/m 0 min 0 min 90 W/m 6,3 km/h (2 Bft)
19.01.2015 10:22 -0,6 C -0,6 C 95 % 1012,4 hPa 0,0 l/m 0 min 0 min 90 W/m 8,4 km/h (2 Bft)
19.01.2015 10:24 -0,6 C -0,6 C 95 % 1012,3 hPa 0,0 l/m 0 min 0 min 91 W/m 4,2 km/h (1 Bft)
19.01.2015 10:26 -0,5 C -0,6 C 95 % 1012,3 hPa 0,0 l/m 0 min 0 min 91 W/m 8,4 km/h (2 Bft)
19.01.2015 10:28 -0,5 C -0,6 C 95 % 1012,2 hPa 0,0 l/m 0 min 0 min 95 W/m 6,3 km/h (2 Bft)
19.01.2015 10:30 -0,4 C -0,6 C 95 % 1012,2 hPa 0,0 l/m 0 min 0 min 98 W/m 6,3 km/h (2 Bft)
19.01.2015 10:32 -0,4 C -0,6 C 95 % 1012,2 hPa 0,0 l/m 0 min 0 min 105 W/m 6,3 km/h (2 Bft)
19.01.2015 10:34 -0,4 C -0,6 C 95 % 1012,2 hPa 0,0 l/m 0 min 0 min 112 W/m 10,5 km/h (2 Bft)
19.01.2015 10:36 -0,4 C 0,0 C 95 % 1012,2 hPa 0,0 l/m 2 min 0 min 114 W/m 10,5 km/h (2 Bft)
19.01.2015 10:38 -0,4 C 0,0 C 95 % 1012,1 hPa 0,0 l/m 0 min 0 min 112 W/m 10,5 km/h (2 Bft)
19.01.2015 10:40 -0,3 C 0,0 C 95 % 1012,1 hPa 0,0 l/m 0 min 0 min 110 W/m 10,5 km/h (2 Bft)
19.01.2015 10:42 -0,3 C 0,0 C 95 % 1012,1 hPa 0,0 l/m 0 min 0 min 106 W/m 12,6 km/h (3 Bft)
19.01.2015 10:44 -0,3 C 0,0 C 95 % 1012,1 hPa 0,0 l/m 0 min 0 min 105 W/m 14,6 km/h (3 Bft)
19.01.2015 10:46 -0,3 C 0,0 C 95 % 1012,2 hPa 0,0 l/m 0 min 0 min 105 W/m 12,6 km/h (3 Bft)
19.01.2015 10:48 -0,3 C 0,0 C 95 % 1012,2 hPa 0,0 l/m 0 min 0 min 105 W/m 8,4 km/h (2 Bft)
19.01.2015 10:50 -0,3 C 0,0 C 95 % 1012,2 hPa 0,0 l/m 0 min 0 min 103 W/m 12,6 km/h (3 Bft)
19.01.2015 10:52 -0,3 C 0,0 C 95 % 1012,2 hPa 0,0 l/m 0 min 0 min 100 W/m 12,6 km/h (3 Bft)
19.01.2015 10:54 -0,3 C 0,0 C 95 % 1012,2 hPa 0,0 l/m 0 min 0 min 100 W/m 12,6 km/h (3 Bft)
19.01.2015 10:56 -0,2 C 0,0 C 95 % 1012,2 hPa 0,0 l/m 0 min 0 min 98 W/m 12,6 km/h (3 Bft)
19.01.2015 10:58 -0,2 C 0,0 C 95 % 1012,1 hPa 0,0 l/m 0 min 0 min 96 W/m 12,6 km/h (3 Bft)
19.01.2015 11:00 -0,2 C 0,0 C 95 % 1012,1 hPa 0,0 l/m 0 min 0 min 94 W/m 12,6 km/h (3 Bft)
19.01.2015 11:02 -0,2 C 0,0 C 95 % 1012,2 hPa 0,0 l/m 0 min 0 min 93 W/m 10,5 km/h (2 Bft)
19.01.2015 11:06 -0,2 C 0,0 C 95 % 1012,2 hPa 0,0 l/m 0 min 0 min 91 W/m 8,4 km/h (2 Bft)
19.01.2015 11:08 -0,2 C 0,0 C 95 % 1012,2 hPa 0,0 l/m 0 min 0 min 91 W/m 4,2 km/h (1 Bft)
19.01.2015 11:10 -0,2 C 0,0 C 95 % 1012,2 hPa 0,0 l/m 0 min 0 min 91 W/m 4,2 km/h (1 Bft)
19.01.2015 11:12 -0,2 C 0,0 C 95 % 1012,2 hPa 0,0 l/m 0 min 0 min 92 W/m 4,2 km/h (1 Bft)
19.01.2015 11:14 -0,2 C 0,0 C 95 % 1012,3 hPa 0,0 l/m 0 min 0 min 94 W/m 4,2 km/h (1 Bft)
19.01.2015 11:16 -0,1 C 0,0 C 95 % 1012,2 hPa 0,0 l/m 0 min 0 min 97 W/m 4,2 km/h (1 Bft)
19.01.2015 11:18 -0,1 C 0,0 C 95 % 1012,2 hPa 0,0 l/m 0 min 0 min 98 W/m 4,2 km/h (1 Bft)
19.01.2015 11:20 -0,1 C 0,0 C 95 % 1012,2 hPa 0,0 l/m 0 min 0 min 99 W/m 6,3 km/h (2 Bft)
19.01.2015 11:22 -0,1 C 0,0 C 94 % 1012,2 hPa 0,0 l/m 0 min 0 min 103 W/m 6,3 km/h (2 Bft)
19.01.2015 11:24 -0,1 C 0,0 C 94 % 1012,2 hPa 0,0 l/m 0 min 0 min 108 W/m 2,1 km/h (1 Bft)
19.01.2015 11:26 -0,1 C 0,0 C 94 % 1012,1 hPa 0,0 l/m 0 min 0 min 111 W/m 4,2 km/h (1 Bft)
19.01.2015 11:28 0,0 C 0,0 C 94 % 1012,1 hPa 0,0 l/m 0 min 0 min 114 W/m 6,3 km/h (2 Bft)
19.01.2015 11:30 0,0 C 0,0 C 94 % 1012,1 hPa 0,0 l/m 0 min 0 min 121 W/m 4,2 km/h (1 Bft)
19.01.2015 11:32 0,1 C 0,0 C 94 % 1012,0 hPa 0,0 l/m 0 min 0 min 143 W/m 6,3 km/h (2 Bft)
19.01.2015 11:34 0,1 C 0,0 C 94 % 1012,0 hPa 0,0 l/m 0 min 0 min 135 W/m 6,3 km/h (2 Bft)
19.01.2015 11:36 0,1 C 0,0 C 94 % 1012,0 hPa 0,0 l/m 0 min 0 min 109 W/m 4,2 km/h (1 Bft)
19.01.2015 11:38 0,1 C 0,0 C 94 % 1012,0 hPa 0,0 l/m 0 min 0 min 102 W/m 4,2 km/h (1 Bft)
19.01.2015 11:40 0,1 C 0,0 C 94 % 1012,1 hPa 0,0 l/m 0 min 0 min 104 W/m 4,2 km/h (1 Bft)
19.01.2015 11:42 0,2 C 0,0 C 94 % 1012,1 hPa 0,0 l/m 0 min 0 min 107 W/m 4,2 km/h (1 Bft)
19.01.2015 11:44 0,2 C 0,0 C 94 % 1012,1 hPa 0,0 l/m 0 min 0 min 110 W/m 4,2 km/h (1 Bft)
19.01.2015 11:46 0,2 C 0,0 C 94 % 1012,1 hPa 0,0 l/m 0 min 0 min 114 W/m 6,3 km/h (2 Bft)
19.01.2015 11:48 0,3 C 0,0 C 94 % 1012,0 hPa 0,0 l/m 0 min 0 min 114 W/m 6,3 km/h (2 Bft)
19.01.2015 11:50 0,3 C 0,0 C 94 % 1012,0 hPa 0,0 l/m 0 min 0 min 116 W/m 4,2 km/h (1 Bft)
19.01.2015 11:52 0,3 C 0,0 C 94 % 1012,0 hPa 0,0 l/m 0 min 0 min 119 W/m 6,3 km/h (2 Bft)
19.01.2015 11:54 0,3 C 0,0 C 94 % 1011,9 hPa 0,0 l/m 0 min 0 min 134 W/m 6,3 km/h (2 Bft)
19.01.2015 11:56 0,3 C 0,0 C 94 % 1011,8 hPa 0,0 l/m 0 min 0 min 136 W/m 6,3 km/h (2 Bft)
19.01.2015 11:58 0,4 C 0,0 C 94 % 1011,9 hPa 0,0 l/m 0 min 0 min 134 W/m 6,3 km/h (2 Bft)
19.01.2015 12:00 0,4 C 0,0 C 94 % 1011,9 hPa 0,0 l/m 0 min 0 min 134 W/m 8,4 km/h (2 Bft)
19.01.2015 12:02 0,4 C 0,0 C 94 % 1011,8 hPa 0,0 l/m 0 min 0 min 134 W/m 8,4 km/h (2 Bft)
19.01.2015 12:06 0,5 C 0,0 C 94 % 1011,8 hPa 0,0 l/m 0 min 0 min 140 W/m 6,3 km/h (2 Bft)
19.01.2015 12:08 0,5 C 0,6 C 94 % 1011,9 hPa 0,0 l/m 0 min 0 min 143 W/m 6,3 km/h (2 Bft)
19.01.2015 12:10 0,5 C 0,6 C 94 % 1011,8 hPa 0,0 l/m 0 min 0 min 149 W/m 6,3 km/h (2 Bft)
19.01.2015 12:12 0,5 C 0,6 C 94 % 1011,8 hPa 0,0 l/m 0 min 0 min 150 W/m 4,2 km/h (1 Bft)
19.01.2015 12:14 0,5 C 0,6 C 94 % 1011,8 hPa 0,0 l/m 0 min 0 min 149 W/m 4,2 km/h (1 Bft)
19.01.2015 12:16 0,5 C 0,6 C 94 % 1011,8 hPa 0,0 l/m 0 min 0 min 145 W/m 4,2 km/h (1 Bft)
19.01.2015 12:18 0,5 C 0,6 C 94 % 1011,8 hPa 0,0 l/m 0 min 0 min 142 W/m 4,2 km/h (1 Bft)
19.01.2015 12:20 0,6 C 0,6 C 94 % 1011,7 hPa 0,0 l/m 0 min 0 min 143 W/m 6,3 km/h (2 Bft)
19.01.2015 12:22 0,6 C 0,6 C 94 % 1011,7 hPa 0,0 l/m 0 min 0 min 143 W/m 6,3 km/h (2 Bft)
19.01.2015 12:24 0,6 C 0,6 C 93 % 1011,7 hPa 0,0 l/m 0 min 0 min 148 W/m 4,2 km/h (1 Bft)
19.01.2015 12:26 0,6 C 0,6 C 93 % 1011,7 hPa 0,0 l/m 0 min 0 min 157 W/m 4,2 km/h (1 Bft)
19.01.2015 12:28 0,7 C 0,6 C 93 % 1011,7 hPa 0,0 l/m 2 min 0 min 161 W/m 4,2 km/h (1 Bft)
19.01.2015 12:30 0,7 C 0,6 C 93 % 1011,6 hPa 0,0 l/m 2 min 0 min 162 W/m 4,2 km/h (1 Bft)
19.01.2015 12:32 0,7 C 0,6 C 93 % 1011,5 hPa 0,0 l/m 2 min 0 min 162 W/m 4,2 km/h (1 Bft)
19.01.2015 12:34 0,7 C 0,6 C 93 % 1011,4 hPa 0,0 l/m 2 min 0 min 166 W/m 4,2 km/h (1 Bft)
19.01.2015 12:36 0,8 C 1,1 C 93 % 1011,4 hPa 0,0 l/m 2 min 0 min 168 W/m 4,2 km/h (1 Bft)
19.01.2015 12:38 0,8 C 1,1 C 93 % 1011,4 hPa 0,0 l/m 2 min 0 min 166 W/m 6,3 km/h (2 Bft)
19.01.2015 12:40 0,8 C 1,1 C 93 % 1011,3 hPa 0,0 l/m 2 min 0 min 167 W/m 4,2 km/h (1 Bft)
19.01.2015 12:42 0,8 C 1,1 C 93 % 1011,3 hPa 0,0 l/m 2 min 0 min 170 W/m 4,2 km/h (1 Bft)
19.01.2015 12:44 0,9 C 1,1 C 93 % 1011,4 hPa 0,0 l/m 2 min 0 min 173 W/m 6,3 km/h (2 Bft)
19.01.2015 12:46 0,9 C 1,1 C 93 % 1011,4 hPa 0,0 l/m 2 min 0 min 173 W/m 6,3 km/h (2 Bft)
19.01.2015 12:48 1,0 C 1,1 C 93 % 1011,4 hPa 0,0 l/m 2 min 0 min 175 W/m 4,2 km/h (1 Bft)
19.01.2015 12:50 1,0 C 1,1 C 92 % 1011,4 hPa 0,0 l/m 2 min 0 min 183 W/m 4,2 km/h (1 Bft)
19.01.2015 12:52 1,1 C 1,1 C 92 % 1011,4 hPa 0,0 l/m 2 min 0 min 192 W/m 2,1 km/h (1 Bft)
19.01.2015 12:54 1,1 C 1,7 C 92 % 1011,4 hPa 0,0 l/m 2 min 0 min 208 W/m 4,2 km/h (1 Bft)
19.01.2015 12:56 1,1 C 1,7 C 92 % 1011,3 hPa 0,0 l/m 2 min 0 min 213 W/m 4,2 km/h (1 Bft)
19.01.2015 12:58 1,2 C 1,7 C 92 % 1011,3 hPa 0,0 l/m 2 min 0 min 208 W/m 6,3 km/h (2 Bft)
19.01.2015 13:00 1,2 C 1,7 C 92 % 1011,3 hPa 0,0 l/m 2 min 0 min 202 W/m 10,5 km/h (2 Bft)
19.01.2015 13:02 1,2 C 1,7 C 92 % 1011,3 hPa 0,0 l/m 2 min 0 min 193 W/m 4,2 km/h (1 Bft)
19.01.2015 13:04 1,3 C 1,7 C 92 % 1011,3 hPa 0,0 l/m 2 min 0 min 188 W/m 4,2 km/h (1 Bft)
19.01.2015 13:06 1,3 C 1,7 C 92 % 1011,2 hPa 0,0 l/m 2 min 0 min 177 W/m 6,3 km/h (2 Bft)
19.01.2015 13:08 1,3 C 1,1 C 92 % 1011,2 hPa 0,0 l/m 2 min 0 min 166 W/m 6,3 km/h (2 Bft)
19.01.2015 13:10 1,4 C 1,1 C 91 % 1011,2 hPa 0,0 l/m 0 min 0 min 157 W/m 6,3 km/h (2 Bft)
19.01.2015 13:12 1,4 C 1,1 C 91 % 1011,2 hPa 0,0 l/m 0 min 0 min 149 W/m 6,3 km/h (2 Bft)
19.01.2015 13:14 1,4 C 1,1 C 91 % 1011,2 hPa 0,0 l/m 0 min 0 min 144 W/m 4,2 km/h (1 Bft)
19.01.2015 13:16 1,4 C 1,1 C 91 % 1011,2 hPa 0,0 l/m 0 min 0 min 138 W/m 6,3 km/h (2 Bft)
19.01.2015 13:18 1,4 C 1,1 C 91 % 1011,2 hPa 0,0 l/m 0 min 0 min 135 W/m 4,2 km/h (1 Bft)
19.01.2015 13:20 1,4 C 1,1 C 91 % 1011,2 hPa 0,0 l/m 0 min 0 min 132 W/m 2,1 km/h (1 Bft)
19.01.2015 13:22 1,5 C 1,1 C 90 % 1011,2 hPa 0,0 l/m 0 min 0 min 131 W/m 2,1 km/h (1 Bft)
19.01.2015 13:24 1,5 C 1,1 C 90 % 1011,2 hPa 0,0 l/m 0 min 0 min 129 W/m 2,1 km/h (1 Bft)
19.01.2015 13:26 1,5 C 1,1 C 90 % 1011,2 hPa 0,0 l/m 0 min 0 min 128 W/m 6,3 km/h (2 Bft)
19.01.2015 13:28 1,5 C 1,1 C 90 % 1011,2 hPa 0,0 l/m 0 min 0 min 129 W/m 4,2 km/h (1 Bft)
19.01.2015 13:30 1,6 C 1,1 C 90 % 1011,2 hPa 0,0 l/m 0 min 0 min 132 W/m 4,2 km/h (1 Bft)
19.01.2015 13:32 1,6 C 1,1 C 90 % 1011,2 hPa 0,0 l/m 0 min 0 min 135 W/m 4,2 km/h (1 Bft)
19.01.2015 13:34 1,6 C 1,1 C 90 % 1011,1 hPa 0,0 l/m 0 min 0 min 135 W/m 4,2 km/h (1 Bft)
19.01.2015 13:36 1,6 C 1,7 C 90 % 1011,1 hPa 0,0 l/m 0 min 0 min 134 W/m 6,3 km/h (2 Bft)
19.01.2015 13:38 1,6 C 1,1 C 89 % 1011,1 hPa 0,0 l/m 0 min 0 min 129 W/m 4,2 km/h (1 Bft)
19.01.2015 13:40 1,6 C 1,1 C 89 % 1011,1 hPa 0,0 l/m 0 min 0 min 125 W/m 4,2 km/h (1 Bft)
19.01.2015 13:42 1,6 C 1,1 C 89 % 1011,1 hPa 0,0 l/m 0 min 0 min 123 W/m 2,1 km/h (1 Bft)
19.01.2015 13:44 1,6 C 1,1 C 89 % 1011,1 hPa 0,0 l/m 0 min 0 min 124 W/m 2,1 km/h (1 Bft)
19.01.2015 13:46 1,6 C 1,1 C 89 % 1011,0 hPa 0,0 l/m 0 min 0 min 125 W/m 2,1 km/h (1 Bft)
19.01.2015 13:48 1,7 C 1,1 C 89 % 1011,0 hPa 0,0 l/m 0 min 0 min 123 W/m 2,1 km/h (1 Bft)
19.01.2015 13:50 1,7 C 1,1 C 89 % 1011,0 hPa 0,0 l/m 0 min 0 min 122 W/m 4,2 km/h (1 Bft)
19.01.2015 13:52 1,7 C 1,1 C 89 % 1011,1 hPa 0,0 l/m 0 min 0 min 120 W/m 2,1 km/h (1 Bft)
19.01.2015 13:54 1,7 C 1,1 C 89 % 1011,1 hPa 0,0 l/m 0 min 0 min 122 W/m 4,2 km/h (1 Bft)
19.01.2015 13:56 1,7 C 1,1 C 89 % 1011,0 hPa 0,0 l/m 0 min 0 min 126 W/m 4,2 km/h (1 Bft)
19.01.2015 13:58 1,7 C 1,1 C 89 % 1011,1 hPa 0,0 l/m 0 min 0 min 130 W/m 4,2 km/h (1 Bft)
19.01.2015 14:00 1,7 C 1,1 C 89 % 1011,0 hPa 0,0 l/m 0 min 0 min 134 W/m 4,2 km/h (1 Bft)
19.01.2015 14:02 1,7 C 1,1 C 88 % 1011,0 hPa 0,0 l/m 0 min 0 min 135 W/m 4,2 km/h (1 Bft)
19.01.2015 14:04 1,7 C 1,1 C 89 % 1011,0 hPa 0,0 l/m 0 min 0 min 133 W/m 2,1 km/h (1 Bft)
19.01.2015 14:06 1,7 C 1,1 C 88 % 1011,0 hPa 0,0 l/m 0 min 0 min 126 W/m 2,1 km/h (1 Bft)
19.01.2015 14:08 1,7 C 1,1 C 88 % 1011,0 hPa 0,0 l/m 0 min 0 min 115 W/m 6,3 km/h (2 Bft)
19.01.2015 14:10 1,7 C 1,1 C 88 % 1010,9 hPa 0,0 l/m 0 min 0 min 105 W/m 6,3 km/h (2 Bft)
19.01.2015 14:12 1,7 C 1,1 C 88 % 1010,9 hPa 0,0 l/m 0 min 0 min 98 W/m 4,2 km/h (1 Bft)
19.01.2015 14:14 1,7 C 1,1 C 88 % 1010,9 hPa 0,0 l/m 0 min 0 min 97 W/m 6,3 km/h (2 Bft)
19.01.2015 14:16 1,7 C 0,6 C 88 % 1010,8 hPa 0,0 l/m 0 min 0 min 98 W/m 6,3 km/h (2 Bft)
19.01.2015 14:18 1,7 C 0,6 C 88 % 1010,8 hPa 0,0 l/m 0 min 0 min 98 W/m 6,3 km/h (2 Bft)
19.01.2015 14:20 1,6 C 0,6 C 88 % 1010,8 hPa 0,0 l/m 0 min 0 min 98 W/m 6,3 km/h (2 Bft)
19.01.2015 14:22 1,6 C 0,6 C 88 % 1010,8 hPa 0,0 l/m 0 min 0 min 98 W/m 6,3 km/h (2 Bft)
19.01.2015 14:24 1,6 C 0,6 C 88 % 1010,8 hPa 0,0 l/m 0 min 0 min 99 W/m 4,2 km/h (1 Bft)
19.01.2015 14:26 1,5 C 0,6 C 88 % 1010,9 hPa 0,0 l/m 0 min 0 min 100 W/m 4,2 km/h (1 Bft)
19.01.2015 14:28 1,5 C 0,6 C 88 % 1010,8 hPa 0,0 l/m 0 min 0 min 102 W/m 2,1 km/h (1 Bft)
19.01.2015 14:30 1,5 C 0,6 C 88 % 1010,9 hPa 0,0 l/m 0 min 0 min 104 W/m 4,2 km/h (1 Bft)
19.01.2015 14:32 1,5 C 1,1 C 88 % 1010,8 hPa 0,0 l/m 0 min 0 min 105 W/m 4,2 km/h (1 Bft)
19.01.2015 14:34 1,5 C 1,1 C 88 % 1010,8 hPa 0,0 l/m 0 min 0 min 105 W/m 6,3 km/h (2 Bft)
19.01.2015 14:36 1,5 C 1,1 C 88 % 1010,8 hPa 0,0 l/m 0 min 0 min 102 W/m 4,2 km/h (1 Bft)
19.01.2015 14:38 1,4 C 1,1 C 88 % 1010,8 hPa 0,0 l/m 0 min 0 min 99 W/m 4,2 km/h (1 Bft)
19.01.2015 14:40 1,4 C 1,1 C 88 % 1010,8 hPa 0,0 l/m 0 min 0 min 96 W/m 4,2 km/h (1 Bft)
19.01.2015 14:42 1,4 C 1,1 C 88 % 1010,8 hPa 0,0 l/m 0 min 0 min 92 W/m 4,2 km/h (1 Bft)
19.01.2015 14:44 1,4 C 1,1 C 88 % 1010,7 hPa 0,0 l/m 0 min 0 min 90 W/m 2,1 km/h (1 Bft)
19.01.2015 14:46 1,4 C 1,1 C 88 % 1010,7 hPa 0,0 l/m 0 min 0 min 86 W/m 4,2 km/h (1 Bft)
19.01.2015 14:48 1,4 C 1,1 C 88 % 1010,7 hPa 0,0 l/m 0 min 0 min 84 W/m 4,2 km/h (1 Bft)
19.01.2015 14:50 1,4 C 1,1 C 88 % 1010,7 hPa 0,0 l/m 0 min 0 min 83 W/m 4,2 km/h (1 Bft)
19.01.2015 14:52 1,4 C 1,1 C 88 % 1010,7 hPa 0,0 l/m 0 min 0 min 83 W/m 4,2 km/h (1 Bft)
19.01.2015 14:54 1,4 C 1,1 C 88 % 1010,7 hPa 0,0 l/m 0 min 0 min 83 W/m 6,3 km/h (2 Bft)
19.01.2015 14:56 1,4 C 0,6 C 88 % 1010,7 hPa 0,0 l/m 0 min 0 min 85 W/m 4,2 km/h (1 Bft)
19.01.2015 14:58 1,4 C 0,6 C 88 % 1010,7 hPa 0,0 l/m 0 min 0 min 86 W/m 6,3 km/h (2 Bft)
19.01.2015 15:00 1,4 C 0,6 C 88 % 1010,7 hPa 0,0 l/m 0 min 0 min 85 W/m 2,1 km/h (1 Bft)
19.01.2015 15:02 1,4 C 1,1 C 88 % 1010,7 hPa 0,0 l/m 0 min 0 min 83 W/m 4,2 km/h (1 Bft)
19.01.2015 15:04 1,4 C 0,6 C 88 % 1010,7 hPa 0,0 l/m 0 min 0 min 77 W/m 2,1 km/h (1 Bft)
19.01.2015 15:06 1,4 C 0,6 C 88 % 1010,7 hPa 0,0 l/m 0 min 0 min 73 W/m 4,2 km/h (1 Bft)
19.01.2015 15:08 1,4 C 0,6 C 88 % 1010,7 hPa 0,0 l/m 0 min 0 min 69 W/m 4,2 km/h (1 Bft)
19.01.2015 15:10 1,4 C 0,6 C 88 % 1010,7 hPa 0,0 l/m 0 min 0 min 67 W/m 4,2 km/h (1 Bft)
19.01.2015 15:12 1,4 C 0,6 C 88 % 1010,8 hPa 0,0 l/m 0 min 0 min 67 W/m 2,1 km/h (1 Bft)
19.01.2015 15:14 1,4 C 0,6 C 88 % 1010,7 hPa 0,0 l/m 0 min 0 min 67 W/m 2,1 km/h (1 Bft)
19.01.2015 15:16 1,3 C 0,6 C 88 % 1010,7 hPa 0,0 l/m 0 min 0 min 65 W/m 4,2 km/h (1 Bft)
19.01.2015 15:18 1,3 C 0,6 C 88 % 1010,8 hPa 0,0 l/m 0 min 0 min 65 W/m 2,1 km/h (1 Bft)
19.01.2015 15:20 1,3 C 0,6 C 88 % 1010,8 hPa 0,0 l/m 0 min 0 min 65 W/m 2,1 km/h (1 Bft)
19.01.2015 15:22 1,3 C 0,6 C 88 % 1010,8 hPa 0,0 l/m 0 min 0 min 65 W/m 2,1 km/h (1 Bft)
19.01.2015 15:24 1,3 C 0,6 C 88 % 1010,7 hPa 0,0 l/m 0 min 0 min 63 W/m 4,2 km/h (1 Bft)
19.01.2015 15:26 1,3 C 0,6 C 88 % 1010,7 hPa 0,0 l/m 0 min 0 min 60 W/m 4,2 km/h (1 Bft)
19.01.2015 15:28 1,3 C 0,6 C 88 % 1010,8 hPa 0,0 l/m 0 min 0 min 56 W/m 2,1 km/h (1 Bft)
19.01.2015 15:30 1,3 C 0,6 C 88 % 1010,8 hPa 0,0 l/m 0 min 0 min 54 W/m 4,2 km/h (1 Bft)
19.01.2015 15:32 1,3 C 0,6 C 88 % 1010,8 hPa 0,0 l/m 0 min 0 min 52 W/m 2,1 km/h (1 Bft)
19.01.2015 15:34 1,3 C 0,6 C 88 % 1010,8 hPa 0,0 l/m 0 min 0 min 50 W/m 2,1 km/h (1 Bft)
19.01.2015 15:36 1,3 C 0,6 C 88 % 1010,8 hPa 0,0 l/m 0 min 0 min 49 W/m 4,2 km/h (1 Bft)
19.01.2015 15:38 1,3 C 0,6 C 88 % 1010,7 hPa 0,0 l/m 0 min 0 min 48 W/m 4,2 km/h (1 Bft)
19.01.2015 15:40 1,3 C 0,6 C 88 % 1010,8 hPa 0,0 l/m 0 min 0 min 47 W/m 4,2 km/h (1 Bft)
19.01.2015 15:42 1,3 C 0,6 C 88 % 1010,8 hPa 0,0 l/m 0 min 0 min 46 W/m 4,2 km/h (1 Bft)
19.01.2015 15:44 1,3 C 0,6 C 88 % 1010,8 hPa 0,0 l/m 0 min 0 min 46 W/m 4,2 km/h (1 Bft)
19.01.2015 15:46 1,3 C 0,6 C 88 % 1010,8 hPa 0,0 l/m 0 min 0 min 47 W/m 4,2 km/h (1 Bft)
19.01.2015 15:48 1,3 C 0,6 C 88 % 1010,8 hPa 0,0 l/m 0 min 0 min 47 W/m 4,2 km/h (1 Bft)
19.01.2015 15:50 1,2 C 0,6 C 88 % 1010,8 hPa 0,0 l/m 0 min 0 min 47 W/m 4,2 km/h (1 Bft)
19.01.2015 15:52 1,3 C 0,6 C 88 % 1010,9 hPa 0,0 l/m 0 min 0 min 46 W/m 2,1 km/h (1 Bft)
19.01.2015 15:54 1,3 C 0,6 C 88 % 1010,9 hPa 0,0 l/m 0 min 0 min 44 W/m 2,1 km/h (1 Bft)
19.01.2015 15:56 1,3 C 0,6 C 88 % 1010,9 hPa 0,0 l/m 0 min 0 min 43 W/m 2,1 km/h (1 Bft)
19.01.2015 15:58 1,2 C 0,6 C 88 % 1010,9 hPa 0,0 l/m 0 min 0 min 41 W/m 2,1 km/h (1 Bft)
19.01.2015 16:00 1,2 C 0,6 C 88 % 1010,9 hPa 0,0 l/m 0 min 0 min 39 W/m 2,1 km/h (1 Bft)
19.01.2015 16:02 1,2 C 0,6 C 88 % 1010,9 hPa 0,0 l/m 0 min 0 min 38 W/m 4,2 km/h (1 Bft)
19.01.2015 16:04 1,2 C 0,6 C 88 % 1010,9 hPa 0,0 l/m 0 min 0 min 35 W/m 6,3 km/h (2 Bft)
19.01.2015 16:06 1,2 C 0,6 C 88 % 1010,8 hPa 0,0 l/m 0 min 0 min 35 W/m 6,3 km/h (2 Bft)
19.01.2015 16:08 1,2 C 0,6 C 88 % 1010,9 hPa 0,0 l/m 0 min 0 min 33 W/m 4,2 km/h (1 Bft)
19.01.2015 16:10 1,2 C 0,6 C 88 % 1010,9 hPa 0,0 l/m 0 min 0 min 33 W/m 4,2 km/h (1 Bft)
19.01.2015 16:12 1,2 C 0,6 C 88 % 1010,9 hPa 0,0 l/m 0 min 0 min 33 W/m 4,2 km/h (1 Bft)
19.01.2015 16:14 1,2 C 0,6 C 88 % 1010,9 hPa 0,0 l/m 0 min 0 min 31 W/m 2,1 km/h (1 Bft)
19.01.2015 16:16 1,2 C 0,0 C 88 % 1010,8 hPa 0,0 l/m 0 min 0 min 27 W/m 2,1 km/h (1 Bft)
19.01.2015 16:18 1,2 C 0,0 C 88 % 1010,8 hPa 0,0 l/m 0 min 0 min 23 W/m 2,1 km/h (1 Bft)
19.01.2015 16:20 1,2 C 0,0 C 88 % 1010,9 hPa 0,0 l/m 0 min 0 min 20 W/m 4,2 km/h (1 Bft)
19.01.2015 16:22 1,2 C 0,0 C 88 % 1010,9 hPa 0,0 l/m 0 min 0 min 19 W/m 4,2 km/h (1 Bft)
19.01.2015 16:24 1,2 C 0,0 C 88 % 1010,9 hPa 0,0 l/m 0 min 0 min 17 W/m 4,2 km/h (1 Bft)
19.01.2015 16:26 1,2 C 0,0 C 88 % 1010,9 hPa 0,0 l/m 0 min 0 min 16 W/m 4,2 km/h (1 Bft)
19.01.2015 16:28 1,2 C 0,0 C 88 % 1010,8 hPa 0,0 l/m 0 min 0 min 14 W/m 4,2 km/h (1 Bft)
19.01.2015 16:30 1,2 C 0,0 C 88 % 1010,8 hPa 0,0 l/m 0 min 0 min 14 W/m 6,3 km/h (2 Bft)
19.01.2015 16:32 1,2 C 0,0 C 88 % 1010,8 hPa 0,0 l/m 0 min 0 min 12 W/m 6,3 km/h (2 Bft)
19.01.2015 16:34 1,1 C 0,0 C 88 % 1010,8 hPa 0,0 l/m 0 min 0 min 12 W/m 4,2 km/h (1 Bft)
19.01.2015 16:36 1,1 C 0,0 C 88 % 1010,8 hPa 0,0 l/m 0 min 0 min 12 W/m 4,2 km/h (1 Bft)
19.01.2015 16:38 1,1 C 0,0 C 89 % 1010,8 hPa 0,0 l/m 0 min 0 min 12 W/m 2,1 km/h (1 Bft)
19.01.2015 16:40 1,1 C 0,0 C 89 % 1010,7 hPa 0,0 l/m 0 min 0 min 12 W/m 4,2 km/h (1 Bft)
19.01.2015 16:42 1,1 C 0,0 C 89 % 1010,8 hPa 0,0 l/m 0 min 0 min 12 W/m 4,2 km/h (1 Bft)
19.01.2015 16:44 1,1 C 0,0 C 89 % 1010,8 hPa 0,0 l/m 0 min 0 min 12 W/m 4,2 km/h (1 Bft)
19.01.2015 16:46 1,1 C 0,0 C 89 % 1010,8 hPa 0,0 l/m 2 min 0 min 11 W/m 4,2 km/h (1 Bft)
19.01.2015 16:48 1,0 C 0,0 C 89 % 1010,8 hPa 0,0 l/m 0 min 0 min 10 W/m 2,1 km/h (1 Bft)
19.01.2015 16:50 1,0 C 0,0 C 89 % 1010,9 hPa 0,0 l/m 0 min 0 min 8 W/m 4,2 km/h (1 Bft)
19.01.2015 16:52 1,0 C 0,0 C 89 % 1010,9 hPa 0,0 l/m 0 min 0 min 7 W/m 4,2 km/h (1 Bft)
19.01.2015 16:54 1,0 C 0,0 C 89 % 1010,9 hPa 0,0 l/m 0 min 0 min 6 W/m 2,1 km/h (1 Bft)
19.01.2015 16:56 1,0 C 0,0 C 89 % 1010,9 hPa 0,0 l/m 0 min 0 min 5 W/m 4,2 km/h (1 Bft)
19.01.2015 16:58 0,9 C 0,0 C 89 % 1010,9 hPa 0,0 l/m 0 min 0 min 5 W/m 2,1 km/h (1 Bft)
19.01.2015 17:00 0,9 C 0,0 C 89 % 1010,8 hPa 0,0 l/m 0 min 0 min 4 W/m 2,1 km/h (1 Bft)
19.01.2015 17:02 0,9 C -0,6 C 89 % 1010,8 hPa 0,0 l/m 0 min 0 min 0 W/m 2,1 km/h (1 Bft)
19.01.2015 17:04 0,9 C -0,6 C 89 % 1010,9 hPa 0,0 l/m 0 min 0 min 0 W/m 2,1 km/h (1 Bft)
19.01.2015 17:06 0,9 C -0,6 C 89 % 1010,9 hPa 0,0 l/m 0 min 0 min 0 W/m 4,2 km/h (1 Bft)
19.01.2015 17:08 0,9 C -0,6 C 89 % 1010,9 hPa 0,0 l/m 0 min 0 min 0 W/m 4,2 km/h (1 Bft)
19.01.2015 17:10 0,9 C -0,6 C 89 % 1011,0 hPa 0,0 l/m 0 min 0 min 0 W/m 4,2 km/h (1 Bft)
19.01.2015 17:12 0,9 C -0,6 C 89 % 1010,9 hPa 0,0 l/m 0 min 0 min 0 W/m 2,1 km/h (1 Bft)
19.01.2015 17:14 0,9 C -0,6 C 89 % 1010,9 hPa 0,0 l/m 0 min 0 min 0 W/m 2,1 km/h (1 Bft)
19.01.2015 17:16 0,8 C -0,6 C 89 % 1011,0 hPa 0,0 l/m 0 min 0 min 0 W/m 2,1 km/h (1 Bft)
19.01.2015 17:18 0,8 C -0,6 C 89 % 1010,9 hPa 0,0 l/m 0 min 0 min 0 W/m 2,1 km/h (1 Bft)
19.01.2015 17:20 0,8 C -0,6 C 89 % 1010,9 hPa 0,0 l/m 0 min 0 min 0 W/m 2,1 km/h (1 Bft)
19.01.2015 17:22 0,8 C -0,6 C 89 % 1010,9 hPa 0,0 l/m 0 min 0 min 0 W/m 2,1 km/h (1 Bft)
19.01.2015 17:24 0,8 C -0,6 C 89 % 1011,0 hPa 0,0 l/m 0 min 0 min 0 W/m 4,2 km/h (1 Bft)
19.01.2015 17:26 0,8 C -0,6 C 89 % 1011,0 hPa 0,0 l/m 0 min 0 min 0 W/m 4,2 km/h (1 Bft)
19.01.2015 17:28 0,8 C -0,6 C 89 % 1011,0 hPa 0,0 l/m 0 min 0 min 0 W/m 2,1 km/h (1 Bft)
19.01.2015 17:30 0,7 C -0,6 C 89 % 1011,0 hPa 0,0 l/m 0 min 0 min 0 W/m 2,1 km/h (1 Bft)
19.01.2015 17:32 0,7 C -0,6 C 89 % 1011,1 hPa 0,0 l/m 0 min 0 min 0 W/m 2,1 km/h (1 Bft)
19.01.2015 17:34 0,7 C -0,6 C 89 % 1011,0 hPa 0,0 l/m 0 min 0 min 0 W/m 2,1 km/h (1 Bft)
19.01.2015 17:36 0,7 C -0,6 C 89 % 1011,1 hPa 0,0 l/m 0 min 0 min 0 W/m 2,1 km/h (1 Bft)
19.01.2015 17:38 0,7 C -0,6 C 89 % 1011,2 hPa 0,0 l/m 0 min 0 min 0 W/m 4,2 km/h (1 Bft)
19.01.2015 17:40 0,7 C -0,6 C 89 % 1011,1 hPa 0,0 l/m 0 min 0 min 0 W/m 2,1 km/h (1 Bft)
19.01.2015 17:42 0,6 C -0,6 C 89 % 1011,1 hPa 0,0 l/m 0 min 0 min 0 W/m 2,1 km/h (1 Bft)
19.01.2015 17:44 0,6 C -0,6 C 89 % 1011,1 hPa 0,0 l/m 0 min 0 min 0 W/m 2,1 km/h (1 Bft)
19.01.2015 17:46 0,6 C -0,6 C 89 % 1011,0 hPa 0,0 l/m 0 min 0 min 0 W/m 2,1 km/h (1 Bft)
19.01.2015 17:48 0,6 C -0,6 C 89 % 1010,9 hPa 0,0 l/m 0 min 0 min 0 W/m 4,2 km/h (1 Bft)
19.01.2015 17:50 0,6 C -0,6 C 89 % 1011,0 hPa 0,0 l/m 0 min 0 min 0 W/m 4,2 km/h (1 Bft)
19.01.2015 17:52 0,6 C -0,6 C 89 % 1011,0 hPa 0,0 l/m 0 min 0 min 0 W/m 4,2 km/h (1 Bft)
19.01.2015 17:54 0,6 C -0,6 C 89 % 1011,0 hPa 0,0 l/m 0 min 0 min 0 W/m 4,2 km/h (1 Bft)
19.01.2015 17:56 0,5 C -0,6 C 89 % 1011,0 hPa 0,0 l/m 0 min 0 min 0 W/m 2,1 km/h (1 Bft)
19.01.2015 17:58 0,5 C -0,6 C 89 % 1011,0 hPa 0,0 l/m 0 min 0 min 0 W/m 2,1 km/h (1 Bft)
19.01.2015 18:00 0,5 C -0,6 C 89 % 1011,0 hPa 0,0 l/m 0 min 0 min 0 W/m 2,1 km/h (1 Bft)
19.01.2015 18:02 0,5 C -0,6 C 89 % 1011,0 hPa 0,0 l/m 0 min 0 min 0 W/m 4,2 km/h (1 Bft)
19.01.2015 18:06 0,5 C -0,6 C 90 % 1011,0 hPa 0,0 l/m 0 min 0 min 0 W/m 2,1 km/h (1 Bft)
19.01.2015 18:08 0,5 C -1,1 C 90 % 1011,1 hPa 0,0 l/m 0 min 0 min 0 W/m 2,1 km/h (1 Bft)
19.01.2015 18:10 0,5 C -1,1 C 90 % 1011,0 hPa 0,0 l/m 0 min 0 min 0 W/m 0,0 km/h (0 Bft)
19.01.2015 18:12 0,5 C -1,1 C 90 % 1011,0 hPa 0,0 l/m 0 min 0 min 0 W/m 0,0 km/h (0 Bft)
19.01.2015 18:14 0,5 C -1,1 C 90 % 1011,0 hPa 0,0 l/m 0 min 0 min 0 W/m 0,0 km/h (0 Bft)
19.01.2015 18:16 0,5 C -1,1 C 90 % 1011,0 hPa 0,0 l/m 0 min 0 min 0 W/m 2,1 km/h (1 Bft)
19.01.2015 18:18 0,5 C -1,1 C 90 % 1010,9 hPa 0,0 l/m 0 min 0 min 0 W/m 2,1 km/h (1 Bft)
19.01.2015 18:20 0,5 C -1,1 C 90 % 1010,9 hPa 0,0 l/m 0 min 0 min 0 W/m 2,1 km/h (1 Bft)
19.01.2015 18:22 0,5 C -1,1 C 90 % 1010,9 hPa 0,0 l/m 0 min 0 min 0 W/m 2,1 km/h (1 Bft)
19.01.2015 18:24 0,5 C -1,1 C 90 % 1010,9 hPa 0,0 l/m 0 min 0 min 0 W/m 0,0 km/h (0 Bft)
19.01.2015 18:26 0,4 C -1,1 C 90 % 1010,9 hPa 0,0 l/m 0 min 0 min 0 W/m 0,0 km/h (0 Bft)
19.01.2015 18:28 0,4 C -1,1 C 90 % 1010,9 hPa 0,0 l/m 0 min 0 min 0 W/m 0,0 km/h (0 Bft)
19.01.2015 18:30 0,4 C -1,1 C 90 % 1010,9 hPa 0,0 l/m 0 min 0 min 0 W/m 0,0 km/h (0 Bft)
19.01.2015 18:32 0,4 C -1,1 C 90 % 1010,9 hPa 0,0 l/m 0 min 0 min 0 W/m 0,0 km/h (0 Bft)
19.01.2015 18:34 0,4 C -1,1 C 90 % 1010,9 hPa 0,0 l/m 0 min 0 min 0 W/m 2,1 km/h (1 Bft)
19.01.2015 18:36 0,4 C -1,1 C 90 % 1010,9 hPa 0,0 l/m 0 min 0 min 0 W/m 4,2 km/h (1 Bft)
19.01.2015 18:38 0,3 C -1,1 C 90 % 1010,9 hPa 0,0 l/m 0 min 0 min 0 W/m 4,2 km/h (1 Bft)
19.01.2015 18:40 0,3 C -1,1 C 90 % 1010,9 hPa 0,0 l/m 0 min 0 min 0 W/m 2,1 km/h (1 Bft)
19.01.2015 18:42 0,3 C -1,1 C 90 % 1010,9 hPa 0,0 l/m 0 min 0 min 0 W/m 4,2 km/h (1 Bft)
19.01.2015 18:44 0,3 C -1,1 C 90 % 1011,0 hPa 0,0 l/m 0 min 0 min 0 W/m 2,1 km/h (1 Bft)
19.01.2015 18:46 0,3 C -1,1 C 90 % 1010,9 hPa 0,0 l/m 0 min 0 min 0 W/m 2,1 km/h (1 Bft)
19.01.2015 18:48 0,3 C -1,1 C 90 % 1011,0 hPa 0,0 l/m 0 min 0 min 0 W/m 2,1 km/h (1 Bft)
19.01.2015 18:50 0,3 C -1,1 C 90 % 1011,0 hPa 0,0 l/m 0 min 0 min 0 W/m 2,1 km/h (1 Bft)
19.01.2015 18:52 0,3 C -1,1 C 90 % 1010,9 hPa 0,0 l/m 0 min 0 min 0 W/m 4,2 km/h (1 Bft)
19.01.2015 18:54 0,3 C -1,1 C 90 % 1010,9 hPa 0,0 l/m 0 min 0 min 0 W/m 4,2 km/h (1 Bft)
19.01.2015 18:56 0,3 C -1,1 C 90 % 1010,9 hPa 0,0 l/m 0 min 0 min 0 W/m 4,2 km/h (1 Bft)
19.01.2015 18:58 0,2 C -1,1 C 90 % 1010,9 hPa 0,0 l/m 0 min 0 min 0 W/m 6,3 km/h (2 Bft)
19.01.2015 19:00 0,2 C -1,1 C 90 % 1010,8 hPa 0,0 l/m 0 min 0 min 0 W/m 6,3 km/h (2 Bft)
19.01.2015 19:02 0,2 C -0,6 C 90 % 1010,9 hPa 0,0 l/m 0 min 0 min 0 W/m 4,2 km/h (1 Bft)
19.01.2015 19:04 0,3 C -0,6 C 90 % 1010,9 hPa 0,0 l/m 0 min 0 min 0 W/m 4,2 km/h (1 Bft)
19.01.2015 19:06 0,2 C -0,6 C 90 % 1010,9 hPa 0,0 l/m 0 min 0 min 0 W/m 4,2 km/h (1 Bft)
19.01.2015 19:08 0,2 C -0,6 C 91 % 1010,9 hPa 0,0 l/m 0 min 0 min 0 W/m 2,1 km/h (1 Bft)
19.01.2015 19:10 0,2 C -1,1 C 91 % 1010,9 hPa 0,0 l/m 0 min 0 min 0 W/m 2,1 km/h (1 Bft)
19.01.2015 19:12 0,2 C -1,1 C 90 % 1010,9 hPa 0,0 l/m 0 min 0 min 0 W/m 2,1 km/h (1 Bft)
19.01.2015 19:14 0,2 C -1,1 C 90 % 1011,0 hPa 0,0 l/m 0 min 0 min 0 W/m 2,1 km/h (1 Bft)
19.01.2015 19:16 0,2 C -1,1 C 91 % 1011,0 hPa 0,0 l/m 0 min 0 min 0 W/m 2,1 km/h (1 Bft)
19.01.2015 19:18 0,2 C -1,1 C 91 % 1011,0 hPa 0,0 l/m 0 min 0 min 0 W/m 4,2 km/h (1 Bft)
19.01.2015 19:20 0,2 C -1,1 C 91 % 1011,0 hPa 0,0 l/m 0 min 0 min 0 W/m 4,2 km/h (1 Bft)
19.01.2015 19:22 0,2 C -1,1 C 91 % 1011,1 hPa 0,0 l/m 0 min 0 min 0 W/m 4,2 km/h (1 Bft)
19.01.2015 19:24 0,2 C -1,1 C 91 % 1011,1 hPa 0,0 l/m 0 min 0 min 0 W/m 2,1 km/h (1 Bft)
19.01.2015 19:26 0,2 C -1,1 C 91 % 1011,0 hPa 0,0 l/m 0 min 0 min 0 W/m 2,1 km/h (1 Bft)
19.01.2015 19:28 0,2 C -1,1 C 91 % 1011,0 hPa 0,0 l/m 0 min 0 min 0 W/m 2,1 km/h (1 Bft)
19.01.2015 19:30 0,2 C -1,1 C 91 % 1011,1 hPa 0,0 l/m 0 min 0 min 0 W/m 2,1 km/h (1 Bft)
19.01.2015 19:32 0,1 C -1,1 C 91 % 1011,0 hPa 0,0 l/m 0 min 0 min 0 W/m 2,1 km/h (1 Bft)
19.01.2015 19:34 0,1 C -1,1 C 91 % 1011,1 hPa 0,0 l/m 0 min 0 min 0 W/m 2,1 km/h (1 Bft)
19.01.2015 19:36 0,1 C -1,7 C 91 % 1011,1 hPa 0,0 l/m 0 min 0 min 0 W/m 2,1 km/h (1 Bft)
19.01.2015 19:38 0,1 C -1,7 C 91 % 1011,1 hPa 0,0 l/m 0 min 0 min 0 W/m 2,1 km/h (1 Bft)
19.01.2015 19:40 0,1 C -1,7 C 91 % 1011,1 hPa 0,0 l/m 0 min 0 min 0 W/m 4,2 km/h (1 Bft)
19.01.2015 19:42 0,1 C -1,7 C 91 % 1011,0 hPa 0,0 l/m 0 min 0 min 0 W/m 2,1 km/h (1 Bft)
19.01.2015 19:44 0,1 C -1,1 C 91 % 1011,1 hPa 0,0 l/m 0 min 0 min 0 W/m 4,2 km/h (1 Bft)
19.01.2015 19:46 0,1 C -1,1 C 91 % 1011,1 hPa 0,0 l/m 0 min 0 min 0 W/m 2,1 km/h (1 Bft)
19.01.2015 19:48 0,0 C -1,7 C 91 % 1011,1 hPa 0,0 l/m 0 min 0 min 0 W/m 2,1 km/h (1 Bft)
19.01.2015 19:50 0,0 C -1,7 C 91 % 1011,1 hPa 0,0 l/m 0 min 0 min 0 W/m 2,1 km/h (1 Bft)
19.01.2015 19:52 0,0 C -1,7 C 91 % 1011,0 hPa 0,0 l/m 0 min 0 min 0 W/m 4,2 km/h (1 Bft)
19.01.2015 19:54 0,0 C -1,7 C 91 % 1011,0 hPa 0,0 l/m 0 min 0 min 0 W/m 4,2 km/h (1 Bft)
19.01.2015 19:56 -0,1 C -1,7 C 91 % 1011,0 hPa 0,0 l/m 0 min 0 min 0 W/m 4,2 km/h (1 Bft)
19.01.2015 19:58 -0,1 C -1,7 C 91 % 1011,0 hPa 0,0 l/m 0 min 0 min 0 W/m 2,1 km/h (1 Bft)
19.01.2015 20:00 -0,1 C -1,7 C 91 % 1010,9 hPa 0,0 l/m 0 min 0 min 0 W/m 2,1 km/h (1 Bft)
19.01.2015 20:02 -0,1 C -1,7 C 91 % 1010,9 hPa 0,0 l/m 0 min 0 min 0 W/m 2,1 km/h (1 Bft)
19.01.2015 20:04 -0,1 C -1,7 C 91 % 1011,0 hPa 0,0 l/m 0 min 0 min 0 W/m 2,1 km/h (1 Bft)
19.01.2015 20:06 -0,1 C -1,7 C 91 % 1011,0 hPa 0,0 l/m 0 min 0 min 0 W/m 2,1 km/h (1 Bft)
19.01.2015 20:08 -0,1 C -1,7 C 91 % 1011,0 hPa 0,0 l/m 0 min 0 min 0 W/m 2,1 km/h (1 Bft)
19.01.2015 20:10 -0,1 C -1,7 C 91 % 1010,9 hPa 0,0 l/m 0 min 0 min 0 W/m 2,1 km/h (1 Bft)
19.01.2015 20:12 -0,1 C -1,7 C 91 % 1010,9 hPa 0,0 l/m 0 min 0 min 0 W/m 2,1 km/h (1 Bft)
19.01.2015 20:14 -0,2 C -1,7 C 91 % 1010,9 hPa 0,0 l/m 0 min 0 min 0 W/m 2,1 km/h (1 Bft)
19.01.2015 20:16 -0,2 C -2,2 C 91 % 1010,9 hPa 0,0 l/m 0 min 0 min 0 W/m 0,0 km/h (0 Bft)
19.01.2015 20:18 -0,2 C -2,2 C 91 % 1010,9 hPa 0,0 l/m 0 min 0 min 0 W/m 2,1 km/h (1 Bft)
19.01.2015 20:20 -0,2 C -2,2 C 91 % 1010,9 hPa 0,0 l/m 0 min 0 min 0 W/m 2,1 km/h (1 Bft)
19.01.2015 20:22 -0,2 C -2,2 C 91 % 1010,9 hPa 0,0 l/m 0 min 0 min 0 W/m 2,1 km/h (1 Bft)
19.01.2015 20:24 -0,2 C -2,2 C 91 % 1011,0 hPa 0,0 l/m 0 min 0 min 0 W/m 4,2 km/h (1 Bft)
19.01.2015 20:26 -0,3 C -2,2 C 91 % 1011,0 hPa 0,0 l/m 0 min 0 min 0 W/m 4,2 km/h (1 Bft)
19.01.2015 20:28 -0,3 C -2,2 C 91 % 1011,0 hPa 0,0 l/m 0 min 0 min 0 W/m 4,2 km/h (1 Bft)
19.01.2015 20:30 -0,3 C -2,2 C 91 % 1011,0 hPa 0,0 l/m 0 min 0 min 0 W/m 4,2 km/h (1 Bft)
19.01.2015 20:32 -0,3 C -2,2 C 91 % 1011,0 hPa 0,0 l/m 0 min 0 min 0 W/m 4,2 km/h (1 Bft)
19.01.2015 20:34 -0,3 C -2,2 C 91 % 1010,9 hPa 0,0 l/m 0 min 0 min 0 W/m 2,1 km/h (1 Bft)
19.01.2015 20:36 -0,3 C -2,2 C 91 % 1011,0 hPa 0,0 l/m 0 min 0 min 0 W/m 2,1 km/h (1 Bft)
19.01.2015 20:38 -0,4 C -2,2 C 91 % 1011,0 hPa 0,0 l/m 0 min 0 min 0 W/m 2,1 km/h (1 Bft)
19.01.2015 20:40 -0,4 C -2,2 C 91 % 1011,0 hPa 0,0 l/m 0 min 0 min 0 W/m 4,2 km/h (1 Bft)
19.01.2015 20:42 -0,4 C -2,2 C 91 % 1011,0 hPa 0,0 l/m 0 min 0 min 0 W/m 4,2 km/h (1 Bft)
19.01.2015 20:44 -0,4 C -2,2 C 91 % 1011,0 hPa 0,0 l/m 0 min 0 min 0 W/m 4,2 km/h (1 Bft)
19.01.2015 20:46 -0,4 C -2,2 C 91 % 1011,0 hPa 0,0 l/m 0 min 0 min 0 W/m 4,2 km/h (1 Bft)
19.01.2015 20:48 -0,4 C -2,2 C 91 % 1011,0 hPa 0,0 l/m 0 min 0 min 0 W/m 4,2 km/h (1 Bft)
19.01.2015 20:50 -0,5 C -2,2 C 91 % 1011,0 hPa 0,0 l/m 0 min 0 min 0 W/m 4,2 km/h (1 Bft)
19.01.2015 20:52 -0,5 C -1,7 C 91 % 1011,0 hPa 0,0 l/m 0 min 0 min 0 W/m 4,2 km/h (1 Bft)
19.01.2015 20:54 -0,5 C -1,7 C 91 % 1011,0 hPa 0,0 l/m 0 min 0 min 0 W/m 4,2 km/h (1 Bft)
19.01.2015 20:56 -0,5 C -1,7 C 91 % 1011,0 hPa 0,0 l/m 0 min 0 min 0 W/m 4,2 km/h (1 Bft)
19.01.2015 20:58 -0,5 C -1,7 C 91 % 1011,0 hPa 0,0 l/m 0 min 0 min 0 W/m 4,2 km/h (1 Bft)
19.01.2015 21:00 -0,6 C -1,7 C 91 % 1011,0 hPa 0,0 l/m 0 min 0 min 0 W/m 4,2 km/h (1 Bft)
19.01.2015 21:02 -0,6 C -1,7 C 91 % 1011,0 hPa 0,0 l/m 0 min 0 min 0 W/m 4,2 km/h (1 Bft)
19.01.2015 21:04 -0,6 C -1,7 C 91 % 1011,0 hPa 0,0 l/m 0 min 0 min 0 W/m 4,2 km/h (1 Bft)
19.01.2015 21:06 -0,6 C -1,7 C 91 % 1011,0 hPa 0,0 l/m 0 min 0 min 0 W/m 4,2 km/h (1 Bft)
19.01.2015 21:08 -0,6 C -1,7 C 91 % 1011,0 hPa 0,0 l/m 0 min 0 min 0 W/m 4,2 km/h (1 Bft)
19.01.2015 21:10 -0,6 C -1,7 C 91 % 1011,0 hPa 0,0 l/m 0 min 0 min 0 W/m 2,1 km/h (1 Bft)
19.01.2015 21:12 -0,6 C -1,7 C 91 % 1011,0 hPa 0,0 l/m 0 min 0 min 0 W/m 2,1 km/h (1 Bft)
19.01.2015 21:14 -0,6 C -1,7 C 91 % 1011,0 hPa 0,0 l/m 0 min 0 min 0 W/m 2,1 km/h (1 Bft)
19.01.2015 21:16 -0,6 C -1,7 C 91 % 1011,1 hPa 0,0 l/m 0 min 0 min 0 W/m 2,1 km/h (1 Bft)
19.01.2015 21:18 -0,6 C -1,7 C 91 % 1011,1 hPa 0,0 l/m 0 min 0 min 0 W/m 2,1 km/h (1 Bft)
19.01.2015 21:20 -0,6 C -1,7 C 91 % 1011,1 hPa 0,0 l/m 0 min 0 min 0 W/m 2,1 km/h (1 Bft)
19.01.2015 21:22 -0,6 C -1,7 C 91 % 1011,1 hPa 0,0 l/m 0 min 0 min 0 W/m 2,1 km/h (1 Bft)
19.01.2015 21:24 -0,6 C -1,7 C 91 % 1011,1 hPa 0,0 l/m 0 min 0 min 0 W/m 2,1 km/h (1 Bft)
19.01.2015 21:26 -0,6 C -1,7 C 91 % 1011,1 hPa 0,0 l/m 0 min 0 min 0 W/m 2,1 km/h (1 Bft)
19.01.2015 21:28 -0,6 C -1,7 C 91 % 1011,1 hPa 0,0 l/m 0 min 0 min 0 W/m 4,2 km/h (1 Bft)
19.01.2015 21:30 -0,7 C -1,7 C 91 % 1011,0 hPa 0,0 l/m 0 min 0 min 0 W/m 2,1 km/h (1 Bft)
19.01.2015 21:32 -0,7 C -1,7 C 91 % 1011,0 hPa 0,0 l/m 0 min 0 min 0 W/m 4,2 km/h (1 Bft)
19.01.2015 21:34 -0,7 C -1,7 C 91 % 1011,1 hPa 0,0 l/m 0 min 0 min 0 W/m 4,2 km/h (1 Bft)
19.01.2015 21:36 -0,7 C -1,7 C 91 % 1011,1 hPa 0,0 l/m 0 min 0 min 0 W/m 4,2 km/h (1 Bft)
19.01.2015 21:38 -0,7 C -1,7 C 91 % 1011,1 hPa 0,0 l/m 0 min 0 min 0 W/m 2,1 km/h (1 Bft)
19.01.2015 21:40 -0,7 C -1,7 C 91 % 1011,1 hPa 0,0 l/m 0 min 0 min 0 W/m 2,1 km/h (1 Bft)
19.01.2015 21:42 -0,7 C -1,7 C 91 % 1011,0 hPa 0,0 l/m 0 min 0 min 0 W/m 2,1 km/h (1 Bft)
19.01.2015 21:44 -0,7 C -1,7 C 91 % 1011,1 hPa 0,0 l/m 0 min 0 min 0 W/m 2,1 km/h (1 Bft)
19.01.2015 21:46 -0,7 C -1,7 C 91 % 1011,1 hPa 0,0 l/m 0 min 0 min 0 W/m 2,1 km/h (1 Bft)
19.01.2015 21:48 -0,7 C -1,7 C 92 % 1011,0 hPa 0,0 l/m 0 min 0 min 0 W/m 2,1 km/h (1 Bft)
19.01.2015 21:50 -0,7 C -1,7 C 92 % 1011,1 hPa 0,0 l/m 0 min 0 min 0 W/m 0,0 km/h (0 Bft)
19.01.2015 21:52 -0,7 C -1,7 C 92 % 1011,1 hPa 0,0 l/m 0 min 0 min 0 W/m 2,1 km/h (1 Bft)
19.01.2015 21:54 -0,7 C -1,7 C 92 % 1011,1 hPa 0,0 l/m 0 min 0 min 0 W/m 2,1 km/h (1 Bft)
19.01.2015 21:56 -0,7 C -1,7 C 92 % 1011,1 hPa 0,0 l/m 0 min 0 min 0 W/m 0,0 km/h (0 Bft)
19.01.2015 21:58 -0,7 C -1,7 C 92 % 1011,1 hPa 0,0 l/m 0 min 0 min 0 W/m 0,0 km/h (0 Bft)
19.01.2015 22:00 -0,7 C -1,7 C 92 % 1011,1 hPa 0,0 l/m 0 min 0 min 0 W/m 2,1 km/h (1 Bft)
19.01.2015 22:02 -0,7 C -1,7 C 92 % 1011,1 hPa 0,0 l/m 0 min 0 min 0 W/m 2,1 km/h (1 Bft)
19.01.2015 22:04 -0,7 C -1,7 C 92 % 1011,1 hPa 0,0 l/m 0 min 0 min 0 W/m 2,1 km/h (1 Bft)
19.01.2015 22:06 -0,7 C -1,7 C 92 % 1011,2 hPa 0,0 l/m 0 min 0 min 0 W/m 2,1 km/h (1 Bft)
19.01.2015 22:08 -0,7 C -1,7 C 92 % 1011,1 hPa 0,0 l/m 0 min 0 min 0 W/m 2,1 km/h (1 Bft)
19.01.2015 22:10 -0,7 C -1,7 C 92 % 1011,1 hPa 0,0 l/m 0 min 0 min 0 W/m 2,1 km/h (1 Bft)
19.01.2015 22:12 -0,7 C -1,7 C 92 % 1011,1 hPa 0,0 l/m 0 min 0 min 0 W/m 2,1 km/h (1 Bft)
19.01.2015 22:14 -0,7 C -1,7 C 92 % 1011,1 hPa 0,0 l/m 0 min 0 min 0 W/m 2,1 km/h (1 Bft)
19.01.2015 22:16 -0,7 C -1,7 C 92 % 1011,1 hPa 0,0 l/m 0 min 0 min 0 W/m 2,1 km/h (1 Bft)
19.01.2015 22:18 -0,7 C -1,7 C 92 % 1011,1 hPa 0,0 l/m 0 min 0 min 0 W/m 4,2 km/h (1 Bft)
19.01.2015 22:20 -0,7 C -1,7 C 92 % 1011,0 hPa 0,0 l/m 0 min 0 min 0 W/m 2,1 km/h (1 Bft)
19.01.2015 22:22 -0,7 C -1,7 C 92 % 1011,1 hPa 0,0 l/m 0 min 0 min 0 W/m 2,1 km/h (1 Bft)
19.01.2015 22:24 -0,7 C -1,7 C 92 % 1011,1 hPa 0,0 l/m 0 min 0 min 0 W/m 2,1 km/h (1 Bft)
19.01.2015 22:26 -0,7 C -1,7 C 92 % 1011,1 hPa 0,0 l/m 0 min 0 min 0 W/m 2,1 km/h (1 Bft)
19.01.2015 22:28 -0,6 C -1,7 C 92 % 1011,1 hPa 0,0 l/m 0 min 0 min 0 W/m 2,1 km/h (1 Bft)
19.01.2015 22:30 -0,6 C -1,1 C 92 % 1011,1 hPa 0,0 l/m 0 min 0 min 0 W/m 4,2 km/h (1 Bft)
19.01.2015 22:32 -0,6 C -1,1 C 92 % 1011,1 hPa 0,0 l/m 0 min 0 min 0 W/m 2,1 km/h (1 Bft)
19.01.2015 22:34 -0,6 C -1,1 C 92 % 1011,1 hPa 0,0 l/m 0 min 0 min 0 W/m 2,1 km/h (1 Bft)
19.01.2015 22:36 -0,6 C -1,1 C 92 % 1011,1 hPa 0,0 l/m 0 min 0 min 0 W/m 2,1 km/h (1 Bft)
19.01.2015 22:38 -0,6 C -1,1 C 92 % 1011,1 hPa 0,0 l/m 0 min 0 min 0 W/m 2,1 km/h (1 Bft)
19.01.2015 22:40 -0,6 C -1,1 C 92 % 1011,1 hPa 0,0 l/m 0 min 0 min 0 W/m 2,1 km/h (1 Bft)
19.01.2015 22:42 -0,6 C -1,1 C 92 % 1011,1 hPa 0,0 l/m 0 min 0 min 0 W/m 2,1 km/h (1 Bft)
19.01.2015 22:44 -0,6 C -1,1 C 92 % 1011,0 hPa 0,0 l/m 0 min 0 min 0 W/m 2,1 km/h (1 Bft)
19.01.2015 22:46 -0,6 C -1,1 C 92 % 1011,0 hPa 0,0 l/m 0 min 0 min 0 W/m 2,1 km/h (1 Bft)
19.01.2015 22:48 -0,6 C -1,1 C 92 % 1011,1 hPa 0,0 l/m 0 min 0 min 0 W/m 2,1 km/h (1 Bft)
19.01.2015 22:50 -0,6 C -1,1 C 92 % 1011,1 hPa 0,0 l/m 0 min 0 min 0 W/m 4,2 km/h (1 Bft)
19.01.2015 22:52 -0,6 C -1,1 C 93 % 1011,1 hPa 0,0 l/m 0 min 0 min 0 W/m 2,1 km/h (1 Bft)
19.01.2015 22:54 -0,6 C -1,1 C 93 % 1011,0 hPa 0,0 l/m 0 min 0 min 0 W/m 2,1 km/h (1 Bft)
19.01.2015 22:56 -0,6 C -1,1 C 93 % 1011,0 hPa 0,0 l/m 0 min 0 min 0 W/m 2,1 km/h (1 Bft)
19.01.2015 22:58 -0,6 C -1,1 C 93 % 1011,0 hPa 0,0 l/m 0 min 0 min 0 W/m 2,1 km/h (1 Bft)
19.01.2015 23:00 -0,6 C -1,1 C 93 % 1011,0 hPa 0,0 l/m 0 min 0 min 0 W/m 0,0 km/h (0 Bft)
19.01.2015 23:02 -0,6 C -1,1 C 93 % 1011,0 hPa 0,0 l/m 0 min 0 min 0 W/m 2,1 km/h (1 Bft)
19.01.2015 23:04 -0,5 C -1,1 C 93 % 1011,0 hPa 0,0 l/m 0 min 0 min 0 W/m 2,1 km/h (1 Bft)
19.01.2015 23:06 -0,5 C -1,1 C 93 % 1011,0 hPa 0,0 l/m 0 min 0 min 0 W/m 2,1 km/h (1 Bft)
19.01.2015 23:08 -0,5 C -1,1 C 93 % 1011,1 hPa 0,0 l/m 0 min 0 min 0 W/m 2,1 km/h (1 Bft)
19.01.2015 23:10 -0,5 C -1,1 C 93 % 1011,0 hPa 0,0 l/m 0 min 0 min 0 W/m 2,1 km/h (1 Bft)
19.01.2015 23:12 -0,5 C -1,1 C 93 % 1011,0 hPa 0,0 l/m 0 min 0 min 0 W/m 2,1 km/h (1 Bft)
19.01.2015 23:14 -0,5 C -1,1 C 93 % 1011,1 hPa 0,0 l/m 0 min 0 min 0 W/m 2,1 km/h (1 Bft)
19.01.2015 23:16 -0,4 C -1,1 C 93 % 1011,1 hPa 0,0 l/m 0 min 0 min 0 W/m 2,1 km/h (1 Bft)
19.01.2015 23:18 -0,4 C -1,1 C 93 % 1011,1 hPa 0,0 l/m 0 min 0 min 0 W/m 2,1 km/h (1 Bft)
19.01.2015 23:20 -0,4 C -1,1 C 93 % 1011,1 hPa 0,0 l/m 0 min 0 min 0 W/m 2,1 km/h (1 Bft)
19.01.2015 23:22 -0,4 C -1,1 C 93 % 1011,1 hPa 0,0 l/m 0 min 0 min 0 W/m 0,0 km/h (0 Bft)
19.01.2015 23:24 -0,4 C -1,1 C 93 % 1011,0 hPa 0,0 l/m 0 min 0 min 0 W/m 0,0 km/h (0 Bft)
19.01.2015 23:26 -0,4 C -1,1 C 93 % 1011,1 hPa 0,0 l/m 0 min 0 min 0 W/m 0,0 km/h (0 Bft)
19.01.2015 23:28 -0,4 C -0,6 C 93 % 1011,1 hPa 0,0 l/m 0 min 0 min 0 W/m 0,0 km/h (0 Bft)
19.01.2015 23:30 -0,4 C -0,6 C 93 % 1011,1 hPa 0,0 l/m 0 min 0 min 0 W/m 2,1 km/h (1 Bft)
19.01.2015 23:32 -0,4 C -0,6 C 93 % 1011,1 hPa 0,0 l/m 0 min 0 min 0 W/m 0,0 km/h (0 Bft)
19.01.2015 23:34 -0,4 C -1,1 C 93 % 1011,2 hPa 0,0 l/m 0 min 0 min 0 W/m 2,1 km/h (1 Bft)
19.01.2015 23:36 -0,4 C -0,6 C 93 % 1011,2 hPa 0,0 l/m 0 min 0 min 0 W/m 2,1 km/h (1 Bft)
19.01.2015 23:38 -0,4 C -0,6 C 93 % 1011,2 hPa 0,0 l/m 0 min 0 min 0 W/m 2,1 km/h (1 Bft)
19.01.2015 23:40 -0,3 C -0,6 C 93 % 1011,2 hPa 0,0 l/m 0 min 0 min 0 W/m 2,1 km/h (1 Bft)
19.01.2015 23:42 -0,3 C -0,6 C 93 % 1011,2 hPa 0,0 l/m 0 min 0 min 0 W/m 2,1 km/h (1 Bft)
19.01.2015 23:44 -0,3 C -0,6 C 93 % 1011,2 hPa 0,0 l/m 0 min 0 min 0 W/m 0,0 km/h (0 Bft)
19.01.2015 23:46 -0,3 C -0,6 C 93 % 1011,2 hPa 0,0 l/m 0 min 0 min 0 W/m 2,1 km/h (1 Bft)
19.01.2015 23:48 -0,3 C -0,6 C 93 % 1011,2 hPa 0,0 l/m 0 min 0 min 0 W/m 2,1 km/h (1 Bft)
19.01.2015 23:50 -0,3 C -0,6 C 93 % 1011,2 hPa 0,0 l/m 0 min 0 min 0 W/m 2,1 km/h (1 Bft)
19.01.2015 23:52 -0,3 C -0,6 C 93 % 1011,2 hPa 0,0 l/m 0 min 0 min 0 W/m 2,1 km/h (1 Bft)
19.01.2015 23:54 -0,3 C -0,6 C 93 % 1011,2 hPa 0,0 l/m 0 min 0 min 0 W/m 2,1 km/h (1 Bft)
19.01.2015 23:56 -0,3 C -0,6 C 93 % 1011,2 hPa 0,0 l/m 0 min 0 min 0 W/m 2,1 km/h (1 Bft)
19.01.2015 23:58 -0,3 C -0,6 C 93 % 1011,2 hPa 0,0 l/m 0 min 0 min 0 W/m 2,1 km/h (1 Bft)
_ Min-Zeit 07:18 05:44 14:02 14:44 - - - - 18:10
Minimum _ -1,8 C -2,8 C 88 % 1010,7 hPa - - - - 0,0 km/h (0 Bft)
_ Max-Zeit 13:46 12:54 08:18 00:20 00:00 08:44 00:00 12:56 00:06
Maximum _ 1,7 C 1,7 C 95 % 1013,0 hPa 0,0 l/m 2 min 0 min 213 W/m 18,8 km/h
O-SO (3 Bft)
Durchschnitt _ -0,2 C -1,1 C 92 % 1011,6 hPa #0,0 l/m #1:36 h #0 min. 89 W/m 6,0 km/h (2 Bft)
© 2015 W. Hausmann